Observation data for Segovia 7SSW on 06/15/2019      Previous  Date       Current Mesonet Observations  Soil Data  Daily Summary Page  Observations in Plain Language
KSE2 150500Z 15011KT 24/19 A2996 RMK A01 T02430190  RH  073%=      5-min Rain = 0
KSE2 150501Z 16010KT 24/19 A2996 RMK A01 T02430191  RH  073%=      5-min Rain = 0
KSE2 150502Z 16010KT 24/19 A2996 RMK A01 T02430191  RH  073%=      5-min Rain = 0
KSE2 150503Z 15011KT 24/19 A2996 RMK A01 T02430192  RH  073%=      5-min Rain = 0
KSE2 150504Z 15011KT 24/19 A2996 RMK A01 T02420191  RH  073%=      5-min Rain = 0
KSE2 150505Z 15012KT 24/19 A2996 RMK A01 T02420191  RH  073%=      5-min Rain = 0
KSE2 150506Z 16013G19KT 24/19 A2996 RMK A01 T02420191  RH  073%=      5-min Rain = 0
KSE2 150507Z 16011KT 24/19 A2996 RMK A01 T02420192  RH  073%=      5-min Rain = 0
KSE2 150508Z 15012KT 24/19 A2996 RMK A01 T02420192  RH  073%=      5-min Rain = 0
KSE2 150509Z 15010KT 24/19 A2996 RMK A01 T02420192  RH  074%=      5-min Rain = 0
KSE2 150510Z 16011G16KT 24/19 A2996 RMK A01 T02420192  RH  074%=      5-min Rain = 0
KSE2 150511Z 16010KT 24/19 A2996 RMK A01 T02420192  RH  074%=      5-min Rain = 0
KSE2 150512Z 16012KT 24/19 A2996 RMK A01 T02410192  RH  074%=      5-min Rain = 0
KSE2 150513Z 15013KT 24/19 A2996 RMK A01 T02410192  RH  074%=      5-min Rain = 0
KSE2 150514Z 15013G19KT 24/19 A2996 RMK A01 T02410192  RH  074%=      5-min Rain = 0
KSE2 150515Z 15014KT 24/19 A2996 RMK A01 T02420192  RH  074%=      5-min Rain = 0
KSE2 150516Z 16013G19KT 24/19 A2996 RMK A01 T02420192  RH  074%=      5-min Rain = 0
KSE2 150517Z 15012KT 24/19 A2996 RMK A01 T02420193  RH  074%=      5-min Rain = 0
KSE2 150518Z 15010KT 24/19 A2996 RMK A01 T02420193  RH  074%=      5-min Rain = 0
KSE2 150519Z 16009KT 24/19 A2996 RMK A01 T02410193  RH  075%=      5-min Rain = 0
KSE2 150520Z 14009G14KT 24/19 A2996 RMK A01 T02400193  RH  075%=      5-min Rain = 0
KSE2 150521Z 15011KT 24/19 A2996 RMK A01 T02400193  RH  075%=      5-min Rain = 0
KSE2 150522Z 15013KT 24/19 A2996 RMK A01 T02400194  RH  075%=      5-min Rain = 0
KSE2 150523Z 16012G17KT 24/19 A2996 RMK A01 T02400193  RH  075%=      5-min Rain = 0
KSE2 150524Z 15014G21KT 24/19 A2996 RMK A01 T02400194  RH  075%=      5-min Rain = 0
KSE2 150525Z 15016G21KT 24/19 A2996 RMK A01 T02400194  RH  075%=      5-min Rain = 0
KSE2 150526Z 15014KT 24/20 A2996 RMK A01 T02410195  RH  075%=      5-min Rain = 0
KSE2 150527Z 15014KT 24/20 A2996 RMK A01 T02410195  RH  075%=      5-min Rain = 0
KSE2 150528Z 16012KT 24/20 A2996 RMK A01 T02410195  RH  076%=      5-min Rain = 0
KSE2 150529Z 16012G19KT 24/20 A2996 RMK A01 T02400195  RH  076%=      5-min Rain = 0
KSE2 150530Z 15013G19KT 24/20 A2996 RMK A01 T02400196  RH  076%=      5-min Rain = 0
KSE2 150531Z 16014KT 24/20 A2996 RMK A01 T02400196  RH  076%=      5-min Rain = 0
KSE2 150532Z 16012KT 24/20 A2996 RMK A01 T02400196  RH  076%=      5-min Rain = 0
KSE2 150533Z 15015KT 24/20 A2996 RMK A01 T02400196  RH  076%=      5-min Rain = 0
KSE2 150534Z 14013KT 24/20 A2996 RMK A01 T02400196  RH  076%=      5-min Rain = 0
KSE2 150535Z 15012KT 24/20 A2996 RMK A01 T02400196  RH  077%=      5-min Rain = 0
KSE2 150536Z 15011KT 24/20 A2996 RMK A01 T02390196  RH  077%=      5-min Rain = 0
KSE2 150537Z 15010KT 24/20 A2996 RMK A01 T02390196  RH  077%=      5-min Rain = 0
KSE2 150538Z 15013G18KT 24/20 A2996 RMK A01 T02380196  RH  077%=      5-min Rain = 0
KSE2 150539Z 16011KT 24/20 A2996 RMK A01 T02380196  RH  077%=      5-min Rain = 0
KSE2 150540Z 16013KT 24/20 A2996 RMK A01 T02380197  RH  077%=      5-min Rain = 0
KSE2 150541Z 15012G18KT 24/20 A2996 RMK A01 T02380197  RH  077%=      5-min Rain = 0
KSE2 150542Z 16014KT 24/20 A2996 RMK A01 T02380197  RH  078%=      5-min Rain = 0
KSE2 150543Z 16013G18KT 24/20 A2996 RMK A01 T02380197  RH  078%=      5-min Rain = 0
KSE2 150544Z 16014G19KT 24/20 A2996 RMK A01 T02380197  RH  078%=      5-min Rain = 0
KSE2 150545Z 16013G18KT 24/20 A2996 RMK A01 T02380197  RH  078%=      5-min Rain = 0
KSE2 150546Z 15013G19KT 24/20 A2996 RMK A01 T02380197  RH  078%=      5-min Rain = 0
KSE2 150547Z 16013G18KT 24/20 A2996 RMK A01 T02380197  RH  078%=      5-min Rain = 0
KSE2 150548Z 15013G19KT 24/20 A2997 RMK A01 T02380197  RH  078%=      5-min Rain = 0
KSE2 150549Z 16013KT 24/20 A2997 RMK A01 T02370197  RH  078%=      5-min Rain = 0
KSE2 150550Z 16012KT 24/20 A2997 RMK A01 T02370197  RH  078%=      5-min Rain = 0
KSE2 150551Z 16017KT 24/20 A2997 RMK A01 T02370197  RH  078%=      5-min Rain = 0
KSE2 150552Z 15011KT 24/20 A2997 RMK A01 T02370197  RH  079%=      5-min Rain = 0
KSE2 150553Z 16009KT 24/20 A2997 RMK A01 T02370198  RH  079%=      5-min Rain = 0
KSE2 150554Z 15010KT 24/20 A2997 RMK A01 T02360198  RH  079%=      5-min Rain = 0
KSE2 150555Z 15015KT 24/20 A2997 RMK A01 T02360198  RH  079%=      5-min Rain = 0
KSE2 150556Z 16010KT 24/20 A2997 RMK A01 T02360198  RH  079%=      5-min Rain = 0
KSE2 150557Z 16012KT 24/20 A2996 RMK A01 T02360198  RH  079%=      5-min Rain = 0
KSE2 150558Z 15014G19KT 24/20 A2996 RMK A01 T02350198  RH  079%=      5-min Rain = 0
KSE2 150559Z 15013KT 24/20 A2996 RMK A01 T02350198  RH  080%=      5-min Rain = 0
KSE2 150600Z 15012KT 24/20 A2996 RMK A01 T02350198  RH  080%=      5-min Rain = 0
KSE2 150601Z 15012KT 24/20 A2997 RMK A01 T02350198  RH  080%=      5-min Rain = 0
KSE2 150602Z 16010KT 24/20 A2997 RMK A01 T02350198  RH  080%=      5-min Rain = 0
KSE2 150603Z 15010KT 24/20 A2997 RMK A01 T02350199  RH  080%=      5-min Rain = 0
KSE2 150604Z 15013KT 23/20 A2997 RMK A01 T02340198  RH  080%=      5-min Rain = 0
KSE2 150605Z 15010KT 23/20 A2997 RMK A01 T02340198  RH  080%=      5-min Rain = 0
KSE2 150606Z 16013G19KT 23/20 A2997 RMK A01 T02340199  RH  080%=      5-min Rain = 0
KSE2 150607Z 16013KT 23/20 A2996 RMK A01 T02340199  RH  081%=      5-min Rain = 0
KSE2 150608Z 16013KT 23/20 A2996 RMK A01 T02340199  RH  080%=      5-min Rain = 0
KSE2 150609Z 16013KT 23/20 A2996 RMK A01 T02340199  RH  080%=      5-min Rain = 0
KSE2 150610Z 16011KT 23/20 A2996 RMK A01 T02340199  RH  080%=      5-min Rain = 0
KSE2 150611Z 16014KT 23/20 A2996 RMK A01 T02340199  RH  081%=      5-min Rain = 0
KSE2 150612Z 15013KT 23/20 A2996 RMK A01 T02340199  RH  081%=      5-min Rain = 0
KSE2 150613Z 15012G17KT 23/20 A2996 RMK A01 T02340199  RH  081%=      5-min Rain = 0
KSE2 150614Z 16011KT 23/20 A2996 RMK A01 T02340200  RH  081%=      5-min Rain = 0
KSE2 150615Z 15011KT 23/20 A2996 RMK A01 T02330199  RH  081%=      5-min Rain = 0
KSE2 150616Z 15012KT 23/20 A2996 RMK A01 T02330199  RH  081%=      5-min Rain = 0
KSE2 150617Z 15014KT 23/20 A2996 RMK A01 T02330199  RH  082%=      5-min Rain = 0
KSE2 150618Z 15011KT 23/20 A2996 RMK A01 T02320199  RH  082%=      5-min Rain = 0
KSE2 150619Z 15013KT 23/20 A2996 RMK A01 T02320199  RH  082%=      5-min Rain = 0
KSE2 150620Z 15015KT 23/20 A2996 RMK A01 T02320199  RH  082%=      5-min Rain = 0
KSE2 150621Z 16013KT 23/20 A2996 RMK A01 T02330199  RH  082%=      5-min Rain = 0
KSE2 150622Z 16014G19KT 23/20 A2996 RMK A01 T02330200  RH  082%=      5-min Rain = 0
KSE2 150623Z 15014KT 23/20 A2996 RMK A01 T02330200  RH  082%=      5-min Rain = 0
KSE2 150624Z 17010G16KT 23/20 A2996 RMK A01 T02330200  RH  082%=      5-min Rain = 0
KSE2 150625Z 16011KT 23/20 A2996 RMK A01 T02320200  RH  082%=      5-min Rain = 0
KSE2 150626Z 16013KT 23/20 A2996 RMK A01 T02320200  RH  082%=      5-min Rain = 0
KSE2 150627Z 15013KT 23/20 A2996 RMK A01 T02320200  RH  082%=      5-min Rain = 0
KSE2 150628Z 16012G17KT 23/20 A2996 RMK A01 T02310200  RH  082%=      5-min Rain = 0
KSE2 150629Z 15013G18KT 23/20 A2996 RMK A01 T02310200  RH  082%=      5-min Rain = 0
KSE2 150630Z 15012G18KT 23/20 A2996 RMK A01 T02310200  RH  082%=      5-min Rain = 0
KSE2 150631Z 16012KT 23/20 A2996 RMK A01 T02310200  RH  083%=      5-min Rain = 0
KSE2 150632Z 16014KT 23/20 A2996 RMK A01 T02310200  RH  083%=      5-min Rain = 0
KSE2 150633Z 17013KT 23/20 A2996 RMK A01 T02310200  RH  083%=      5-min Rain = 0
KSE2 150634Z 16011KT 23/20 A2996 RMK A01 T02310200  RH  083%=      5-min Rain = 0
KSE2 150635Z 16014KT 23/20 A2996 RMK A01 T02310201  RH  083%=      5-min Rain = 0
KSE2 150636Z 16011G16KT 23/20 A2996 RMK A01 T02310200  RH  083%=      5-min Rain = 0
KSE2 150637Z 16011KT 23/20 A2996 RMK A01 T02310201  RH  083%=      5-min Rain = 0
KSE2 150638Z 16010G15KT 23/20 A2996 RMK A01 T02300201  RH  083%=      5-min Rain = 0
KSE2 150639Z 15010KT 23/20 A2996 RMK A01 T02300201  RH  083%=      5-min Rain = 0
KSE2 150640Z 16011G18KT 23/20 A2996 RMK A01 T02300201  RH  084%=      5-min Rain = 0
KSE2 150641Z 15011G19KT 23/20 A2996 RMK A01 T02300201  RH  084%=      5-min Rain = 0
KSE2 150642Z 15009KT 23/20 A2996 RMK A01 T02300201  RH  084%=      5-min Rain = 0
KSE2 150643Z 15012KT 23/20 A2996 RMK A01 T02300201  RH  084%=      5-min Rain = 0
KSE2 150644Z 16012G17KT 23/20 A2996 RMK A01 T02290201  RH  084%=      5-min Rain = 0
KSE2 150645Z 16008G14KT 23/20 A2996 RMK A01 T02300201  RH  084%=      5-min Rain = 0
KSE2 150646Z 16011G17KT 23/20 A2996 RMK A01 T02290201  RH  084%=      5-min Rain = 0
KSE2 150647Z 16010G15KT 23/20 A2996 RMK A01 T02290202  RH  084%=      5-min Rain = 0
KSE2 150648Z 15015G22KT 23/20 A2996 RMK A01 T02290202  RH  084%=      5-min Rain = 0
KSE2 150649Z 16014G20KT 23/20 A2996 RMK A01 T02300202  RH  085%=      5-min Rain = 0
KSE2 150650Z 16014KT 23/20 A2996 RMK A01 T02300202  RH  085%=      5-min Rain = 0
KSE2 150651Z 16012G17KT 23/20 A2996 RMK A01 T02300203  RH  084%=      5-min Rain = 0
KSE2 150652Z 16011KT 23/20 A2996 RMK A01 T02300202  RH  084%=      5-min Rain = 0
KSE2 150653Z 16013KT 23/20 A2996 RMK A01 T02300203  RH  084%=      5-min Rain = 0
KSE2 150654Z 16014G19KT 23/20 A2996 RMK A01 T02310203  RH  085%=      5-min Rain = 0
KSE2 150655Z 16015G20KT 23/20 A2996 RMK A01 T02300203  RH  085%=      5-min Rain = 0
KSE2 150656Z 17012KT 23/20 A2996 RMK A01 T02310203  RH  085%=      5-min Rain = 0
KSE2 150657Z 16010KT 23/20 A2996 RMK A01 T02310203  RH  085%=      5-min Rain = 0
KSE2 150658Z 16012G17KT 23/20 A2996 RMK A01 T02310204  RH  085%=      5-min Rain = 0
KSE2 150659Z 16012G17KT 23/20 A2996 RMK A01 T02310204  RH  085%=      5-min Rain = 0
KSE2 150700Z 16010KT 23/20 A2996 RMK A01 T02310204  RH  085%=      5-min Rain = 0
KSE2 150701Z 16012KT 23/21 A2996 RMK A01 T02310205  RH  085%=      5-min Rain = 0
KSE2 150702Z 16013KT 23/21 A2996 RMK A01 T02310205  RH  085%=      5-min Rain = 0
KSE2 150703Z 16015KT 23/21 A2996 RMK A01 T02310205  RH  085%=      5-min Rain = 0
KSE2 150704Z 16016KT 23/21 A2996 RMK A01 T02310205  RH  085%=      5-min Rain = 0
KSE2 150705Z 16014KT 23/21 A2996 RMK A01 T02320205  RH  085%=      5-min Rain = 0
KSE2 150706Z 15012KT 23/21 A2996 RMK A01 T02320205  RH  085%=      5-min Rain = 0
KSE2 150707Z 16011KT 23/21 A2996 RMK A01 T02320206  RH  085%=      5-min Rain = 0
KSE2 150708Z 17011KT 23/21 A2996 RMK A01 T02320206  RH  085%=      5-min Rain = 0
KSE2 150709Z 17014KT 23/21 A2996 RMK A01 T02320206  RH  085%=      5-min Rain = 0
KSE2 150710Z 16012G17KT 23/21 A2996 RMK A01 T02320206  RH  085%=      5-min Rain = 0
KSE2 150711Z 16012KT 23/21 A2996 RMK A01 T02320206  RH  085%=      5-min Rain = 0
KSE2 150712Z 16012G17KT 23/21 A2996 RMK A01 T02320206  RH  085%=      5-min Rain = 0
KSE2 150713Z 16013KT 23/21 A2996 RMK A01 T02320206  RH  085%=      5-min Rain = 0
KSE2 150714Z 16012KT 23/21 A2996 RMK A01 T02320206  RH  085%=      5-min Rain = 0
KSE2 150715Z 17013G19KT 23/21 A2996 RMK A01 T02320206  RH  085%=      5-min Rain = 0
KSE2 150716Z 15012G17KT 23/21 A2996 RMK A01 T02320206  RH  085%=      5-min Rain = 0
KSE2 150717Z 17010G15KT 23/21 A2996 RMK A01 T02320207  RH  085%=      5-min Rain = 0
KSE2 150718Z 16012G19KT 23/21 A2996 RMK A01 T02320207  RH  086%=      5-min Rain = 0
KSE2 150719Z 16013G20KT 23/21 A2996 RMK A01 T02320207  RH  086%=      5-min Rain = 0
KSE2 150720Z 16010G15KT 23/21 A2996 RMK A01 T02320207  RH  086%=      5-min Rain = 0
KSE2 150721Z 17012KT 23/21 A2996 RMK A01 T02320207  RH  086%=      5-min Rain = 0
KSE2 150722Z 16011KT 23/21 A2996 RMK A01 T02320207  RH  086%=      5-min Rain = 0
KSE2 150723Z 16011G16KT 23/21 A2996 RMK A01 T02320207  RH  086%=      5-min Rain = 0
KSE2 150724Z 17012KT 23/21 A2996 RMK A01 T02320207  RH  086%=      5-min Rain = 0
KSE2 150725Z 16011G16KT 23/21 A2996 RMK A01 T02320207  RH  086%=      5-min Rain = 0
KSE2 150726Z 16011G17KT 23/21 A2996 RMK A01 T02320207  RH  086%=      5-min Rain = 0
KSE2 150727Z 17013G18KT 23/21 A2996 RMK A01 T02320207  RH  086%=      5-min Rain = 0
KSE2 150728Z 16013KT 23/21 A2996 RMK A01 T02320207  RH  086%=      5-min Rain = 0
KSE2 150729Z 16014G21KT 23/21 A2996 RMK A01 T02320207  RH  086%=      5-min Rain = 0
KSE2 150730Z 17014G19KT 23/21 A2996 RMK A01 T02320207  RH  086%=      5-min Rain = 0
KSE2 150731Z 17012KT 23/21 A2996 RMK A01 T02320207  RH  086%=      5-min Rain = 0
KSE2 150732Z 17011KT 23/21 A2996 RMK A01 T02330208  RH  086%=      5-min Rain = 0
KSE2 150733Z 17011G17KT 23/21 A2996 RMK A01 T02330207  RH  086%=      5-min Rain = 0
KSE2 150734Z 17011G16KT 23/21 A2996 RMK A01 T02330208  RH  086%=      5-min Rain = 0
KSE2 150735Z 17014G22KT 23/21 A2996 RMK A01 T02330208  RH  086%=      5-min Rain = 0
KSE2 150736Z 17016KT 23/21 A2996 RMK A01 T02330208  RH  086%=      5-min Rain = 0
KSE2 150737Z 17013KT 23/21 A2996 RMK A01 T02330208  RH  086%=      5-min Rain = 0
KSE2 150738Z 17012G17KT 23/21 A2996 RMK A01 T02330208  RH  086%=      5-min Rain = 0
KSE2 150739Z 17013G21KT 23/21 A2996 RMK A01 T02330208  RH  086%=      5-min Rain = 0
KSE2 150740Z 17014G20KT 23/21 A2996 RMK A01 T02330208  RH  086%=      5-min Rain = 0
KSE2 150741Z 17013G21KT 23/21 A2996 RMK A01 T02330208  RH  086%=      5-min Rain = 0
KSE2 150742Z 17015G20KT 23/21 A2996 RMK A01 T02330208  RH  086%=      5-min Rain = 0
KSE2 150743Z 17014G20KT 23/21 A2996 RMK A01 T02330208  RH  086%=      5-min Rain = 0
KSE2 150744Z 17015G20KT 23/21 A2996 RMK A01 T02330207  RH  086%=      5-min Rain = 0
KSE2 150745Z 17013G19KT 23/21 A2996 RMK A01 T02330208  RH  086%=      5-min Rain = 0
KSE2 150746Z 17012G21KT 23/21 A2996 RMK A01 T02330208  RH  086%=      5-min Rain = 0
KSE2 150747Z 17015G21KT 23/21 A2996 RMK A01 T02330208  RH  086%=      5-min Rain = 0
KSE2 150748Z 18013G20KT 23/21 A2996 RMK A01 T02330208  RH  086%=      5-min Rain = 0
KSE2 150749Z 17013G20KT 23/21 A2996 RMK A01 T02330208  RH  086%=      5-min Rain = 0
KSE2 150750Z 16013G18KT 23/21 A2996 RMK A01 T02330208  RH  086%=      5-min Rain = 0
KSE2 150751Z 17009KT 23/21 A2996 RMK A01 T02330208  RH  086%=      5-min Rain = 0
KSE2 150752Z 17009G15KT 23/21 A2996 RMK A01 T02330208  RH  086%=      5-min Rain = 0
KSE2 150753Z 17013G18KT 23/21 A2996 RMK A01 T02330208  RH  086%=      5-min Rain = 0
KSE2 150754Z 17013KT 23/21 A2996 RMK A01 T02330208  RH  086%=      5-min Rain = 0
KSE2 150755Z 17014KT 23/21 A2996 RMK A01 T02330208  RH  086%=      5-min Rain = 0
KSE2 150756Z 17012KT 23/21 A2996 RMK A01 T02330208  RH  086%=      5-min Rain = 0
KSE2 150757Z 16012G17KT 23/21 A2996 RMK A01 T02330208  RH  086%=      5-min Rain = 0
KSE2 150758Z 16014KT 23/21 A2995 RMK A01 T02330208  RH  086%=      5-min Rain = 0
KSE2 150759Z 17014G19KT 23/21 A2995 RMK A01 T02330208  RH  086%=      5-min Rain = 0
KSE2 150800Z 16014KT 23/21 A2995 RMK A01 T02330208  RH  086%=      5-min Rain = 0
KSE2 150801Z 17013KT 23/21 A2995 RMK A01 T02330208  RH  086%=      5-min Rain = 0
KSE2 150802Z 16011G18KT 23/21 A2995 RMK A01 T02330208  RH  086%=      5-min Rain = 0
KSE2 150803Z 16012G18KT 23/21 A2995 RMK A01 T02330208  RH  086%=      5-min Rain = 0
KSE2 150804Z 17016G21KT 23/21 A2995 RMK A01 T02330209  RH  086%=      5-min Rain = 0
KSE2 150805Z 16015KT 23/21 A2995 RMK A01 T02330208  RH  086%=      5-min Rain = 0
KSE2 150806Z 16012KT 23/21 A2995 RMK A01 T02330208  RH  086%=      5-min Rain = 0
KSE2 150807Z 17012G18KT 23/21 A2995 RMK A01 T02330209  RH  086%=      5-min Rain = 0
KSE2 150808Z 16012KT 23/21 A2995 RMK A01 T02330208  RH  086%=      5-min Rain = 0
KSE2 150809Z 17014KT 23/21 A2994 RMK A01 T02330209  RH  086%=      5-min Rain = 0
KSE2 150810Z 16015G21KT 23/21 A2994 RMK A01 T02330209  RH  086%=      5-min Rain = 0
KSE2 150811Z 16013KT 23/21 A2994 RMK A01 T02330209  RH  086%=      5-min Rain = 0
KSE2 150812Z 15012G17KT 23/21 A2994 RMK A01 T02330208  RH  086%=      5-min Rain = 0
KSE2 150813Z 17010G16KT 23/21 A2994 RMK A01 T02330208  RH  086%=      5-min Rain = 0
KSE2 150814Z 16015G20KT 23/21 A2994 RMK A01 T02320208  RH  086%=      5-min Rain = 0
KSE2 150815Z 17014G21KT 23/21 A2994 RMK A01 T02330208  RH  086%=      5-min Rain = 0
KSE2 150816Z 16014G19KT 23/21 A2994 RMK A01 T02320208  RH  086%=      5-min Rain = 0
KSE2 150817Z 16015G21KT 23/21 A2994 RMK A01 T02320208  RH  086%=      5-min Rain = 0
KSE2 150818Z 16012KT 23/21 A2994 RMK A01 T02320208  RH  086%=      5-min Rain = 0
KSE2 150819Z 16013KT 23/21 A2994 RMK A01 T02320208  RH  086%=      5-min Rain = 0
KSE2 150820Z 16016KT 23/21 A2994 RMK A01 T02320208  RH  086%=      5-min Rain = 0
KSE2 150821Z 17017G22KT 23/21 A2994 RMK A01 T02320208  RH  086%=      5-min Rain = 0
KSE2 150822Z 16015G20KT 23/21 A2994 RMK A01 T02320208  RH  086%=      5-min Rain = 0
KSE2 150823Z 17014G19KT 23/21 A2994 RMK A01 T02320208  RH  086%=      5-min Rain = 0
KSE2 150824Z 16014G19KT 23/21 A2994 RMK A01 T02320208  RH  086%=      5-min Rain = 0
KSE2 150825Z 17016G21KT 23/21 A2994 RMK A01 T02320208  RH  086%=      5-min Rain = 0
KSE2 150826Z 17011G17KT 23/21 A2994 RMK A01 T02320208  RH  086%=      5-min Rain = 0
KSE2 150827Z 17013G18KT 23/21 A2994 RMK A01 T02320208  RH  086%=      5-min Rain = 0
KSE2 150828Z 17012G20KT 23/21 A2994 RMK A01 T02320208  RH  087%=      5-min Rain = 0
KSE2 150829Z 16012KT 23/21 A2994 RMK A01 T02320208  RH  087%=      5-min Rain = 0
KSE2 150830Z 16011G17KT 23/21 A2994 RMK A01 T02320209  RH  087%=      5-min Rain = 0
KSE2 150831Z 16013G18KT 23/21 A2994 RMK A01 T02310208  RH  087%=      5-min Rain = 0
KSE2 150832Z 16010G15KT 23/21 A2994 RMK A01 T02310209  RH  087%=      5-min Rain = 0
KSE2 150833Z 16012G17KT 23/21 A2994 RMK A01 T02310209  RH  087%=      5-min Rain = 0
KSE2 150834Z 17010KT 23/21 A2994 RMK A01 T02310209  RH  087%=      5-min Rain = 0
KSE2 150835Z 17012KT 23/21 A2994 RMK A01 T02310209  RH  087%=      5-min Rain = 0
KSE2 150836Z 16013KT 23/21 A2994 RMK A01 T02310209  RH  087%=      5-min Rain = 0
KSE2 150837Z 16010G15KT 23/21 A2994 RMK A01 T02310208  RH  087%=      5-min Rain = 0
KSE2 150838Z 16012KT 23/21 A2994 RMK A01 T02310208  RH  087%=      5-min Rain = 0
KSE2 150839Z 16013KT 23/21 A2993 RMK A01 T02310208  RH  087%=      5-min Rain = 0
KSE2 150840Z 16011KT 23/21 A2993 RMK A01 T02310208  RH  087%=      5-min Rain = 0
KSE2 150841Z 16011KT 23/21 A2993 RMK A01 T02310209  RH  087%=      5-min Rain = 0
KSE2 150842Z 16010G15KT 23/21 A2993 RMK A01 T02310208  RH  087%=      5-min Rain = 0
KSE2 150843Z 16013G18KT 23/21 A2993 RMK A01 T02310208  RH  087%=      5-min Rain = 0
KSE2 150844Z 16013KT 23/21 A2993 RMK A01 T02300208  RH  087%=      5-min Rain = 0
KSE2 150845Z 15009KT 23/21 A2993 RMK A01 T02310208  RH  087%=      5-min Rain = 0
KSE2 150846Z 16013KT 23/21 A2993 RMK A01 T02310208  RH  087%=      5-min Rain = 0
KSE2 150847Z 16010G15KT 23/21 A2993 RMK A01 T02300208  RH  087%=      5-min Rain = 0
KSE2 150848Z 16013KT 23/21 A2993 RMK A01 T02300208  RH  087%=      5-min Rain = 0
KSE2 150849Z 16012KT 23/21 A2993 RMK A01 T02300208  RH  087%=      5-min Rain = 0
KSE2 150850Z 16014G21KT 23/21 A2993 RMK A01 T02300208  RH  087%=      5-min Rain = 0
KSE2 150851Z 15012KT 23/21 A2993 RMK A01 T02310208  RH  087%=      5-min Rain = 0
KSE2 150852Z 15012KT 23/21 A2993 RMK A01 T02300208  RH  087%=      5-min Rain = 0
KSE2 150853Z 17011KT 23/21 A2993 RMK A01 T02300208  RH  087%=      5-min Rain = 0
KSE2 150854Z 17011G16KT 23/21 A2993 RMK A01 T02300208  RH  087%=      5-min Rain = 0
KSE2 150855Z 15010KT 23/21 A2993 RMK A01 T02300208  RH  087%=      5-min Rain = 0
KSE2 150856Z 15013G18KT 23/21 A2993 RMK A01 T02300207  RH  087%=      5-min Rain = 0
KSE2 150857Z 16015G20KT 23/21 A2993 RMK A01 T02300207  RH  087%=      5-min Rain = 0
KSE2 150858Z 16012G17KT 23/21 A2993 RMK A01 T02310207  RH  086%=      5-min Rain = 0
KSE2 150859Z 15013G18KT 23/21 A2993 RMK A01 T02300206  RH  086%=      5-min Rain = 0
KSE2 150900Z 16014KT 23/21 A2993 RMK A01 T02300206  RH  086%=      5-min Rain = 0
KSE2 150901Z 16010G15KT 23/21 A2993 RMK A01 T02300206  RH  086%=      5-min Rain = 0
KSE2 150902Z 17009KT 23/21 A2993 RMK A01 T02300207  RH  086%=      5-min Rain = 0
KSE2 150903Z 17010G16KT 23/21 A2993 RMK A01 T02300207  RH  087%=      5-min Rain = 0
KSE2 150904Z 16008KT 23/21 A2993 RMK A01 T02300207  RH  087%=      5-min Rain = 0
KSE2 150905Z 16010KT 23/21 A2993 RMK A01 T02300207  RH  087%=      5-min Rain = 0
KSE2 150906Z 16011KT 23/21 A2993 RMK A01 T02300207  RH  087%=      5-min Rain = 0
KSE2 150907Z 16009KT 23/21 A2994 RMK A01 T02300207  RH  087%=      5-min Rain = 0
KSE2 150908Z 16009KT 23/21 A2994 RMK A01 T02300207  RH  087%=      5-min Rain = 0
KSE2 150909Z 16012KT 23/21 A2994 RMK A01 T02300207  RH  086%=      5-min Rain = 0
KSE2 150910Z 17013G18KT 23/21 A2994 RMK A01 T02300206  RH  086%=      5-min Rain = 0
KSE2 150911Z 16013G19KT 23/21 A2994 RMK A01 T02300206  RH  086%=      5-min Rain = 0
KSE2 150912Z 17015G20KT 23/21 A2993 RMK A01 T02300206  RH  086%=      5-min Rain = 0
KSE2 150913Z 16014G20KT 23/21 A2993 RMK A01 T02300206  RH  086%=      5-min Rain = 0
KSE2 150914Z 16012KT 23/21 A2993 RMK A01 T02300206  RH  086%=      5-min Rain = 0
KSE2 150915Z 18014KT 23/21 A2993 RMK A01 T02300205  RH  086%=      5-min Rain = 0
KSE2 150916Z 17010G15KT 23/21 A2993 RMK A01 T02300205  RH  086%=      5-min Rain = 0
KSE2 150917Z 17009KT 23/21 A2993 RMK A01 T02300205  RH  086%=      5-min Rain = 0
KSE2 150918Z 16012KT 23/21 A2993 RMK A01 T02300205  RH  086%=      5-min Rain = 0
KSE2 150919Z 16012KT 23/21 A2993 RMK A01 T02300205  RH  086%=      5-min Rain = 0
KSE2 150920Z 16011G17KT 23/21 A2993 RMK A01 T02310205  RH  086%=      5-min Rain = 0
KSE2 150921Z 16012KT 23/21 A2993 RMK A01 T02310205  RH  086%=      5-min Rain = 0
KSE2 150922Z 17012G18KT 23/20 A2993 RMK A01 T02300204  RH  085%=      5-min Rain = 0
KSE2 150923Z 17011KT 23/21 A2993 RMK A01 T02310205  RH  085%=      5-min Rain = 0
KSE2 150924Z 16013KT 23/21 A2993 RMK A01 T02310205  RH  085%=      5-min Rain = 0
KSE2 150925Z 17011KT 23/20 A2993 RMK A01 T02310204  RH  085%=      5-min Rain = 0
KSE2 150926Z 17013KT 23/20 A2993 RMK A01 T02310204  RH  085%=      5-min Rain = 0
KSE2 150927Z 16015KT 23/20 A2993 RMK A01 T02300204  RH  085%=      5-min Rain = 0
KSE2 150928Z 16016G26KT 23/20 A2993 RMK A01 T02300204  RH  085%=      5-min Rain = 0
KSE2 150929Z 16017KT 23/20 A2993 RMK A01 T02300203  RH  085%=      5-min Rain = 0
KSE2 150930Z 17014G21KT 23/20 A2993 RMK A01 T02300203  RH  085%=      5-min Rain = 0
KSE2 150931Z 17012G17KT 23/20 A2993 RMK A01 T02310204  RH  085%=      5-min Rain = 0
KSE2 150932Z 16009KT 23/20 A2993 RMK A01 T02310204  RH  085%=      5-min Rain = 0
KSE2 150933Z 16013G19KT 23/20 A2993 RMK A01 T02310204  RH  085%=      5-min Rain = 0
KSE2 150934Z 17013G21KT 23/20 A2993 RMK A01 T02310204  RH  085%=      5-min Rain = 0
KSE2 150935Z 17012KT 23/20 A2993 RMK A01 T02310203  RH  085%=      5-min Rain = 0
KSE2 150936Z 18012G20KT 23/20 A2993 RMK A01 T02310203  RH  085%=      5-min Rain = 0
KSE2 150937Z 17015G21KT 23/20 A2993 RMK A01 T02310203  RH  084%=      5-min Rain = 0
KSE2 150938Z 17011KT 23/20 A2993 RMK A01 T02300203  RH  084%=      5-min Rain = 0
KSE2 150939Z 17015G22KT 23/20 A2993 RMK A01 T02300202  RH  084%=      5-min Rain = 0
KSE2 150940Z 17017G22KT 23/20 A2993 RMK A01 T02300202  RH  084%=      5-min Rain = 0
KSE2 150941Z 17015G20KT 23/20 A2993 RMK A01 T02310202  RH  084%=      5-min Rain = 0
KSE2 150942Z 17009KT 23/20 A2993 RMK A01 T02300202  RH  084%=      5-min Rain = 0
KSE2 150943Z 16014G21KT 23/20 A2993 RMK A01 T02300202  RH  084%=      5-min Rain = 0
KSE2 150944Z 16016G21KT 23/20 A2993 RMK A01 T02300202  RH  084%=      5-min Rain = 0
KSE2 150945Z 17013G18KT 23/20 A2993 RMK A01 T02310202  RH  084%=      5-min Rain = 0
KSE2 150946Z 16011G16KT 23/20 A2993 RMK A01 T02300202  RH  084%=      5-min Rain = 0
KSE2 150947Z 17013G23KT 23/20 A2993 RMK A01 T02300202  RH  084%=      5-min Rain = 0
KSE2 150948Z 16016G26KT 23/20 A2993 RMK A01 T02300202  RH  084%=      5-min Rain = 0
KSE2 150949Z 17017KT 23/20 A2993 RMK A01 T02310202  RH  084%=      5-min Rain = 0
KSE2 150950Z 17013G19KT 23/20 A2993 RMK A01 T02300202  RH  084%=      5-min Rain = 0
KSE2 150951Z 17012G18KT 23/20 A2993 RMK A01 T02310202  RH  084%=      5-min Rain = 0
KSE2 150952Z 17015G24KT 23/20 A2993 RMK A01 T02300202  RH  084%=      5-min Rain = 0
KSE2 150953Z 16012G18KT 23/20 A2993 RMK A01 T02300202  RH  084%=      5-min Rain = 0
KSE2 150954Z 17012KT 23/20 A2993 RMK A01 T02300202  RH  084%=      5-min Rain = 0
KSE2 150955Z 17014G20KT 23/20 A2993 RMK A01 T02300202  RH  084%=      5-min Rain = 0
KSE2 150956Z 16017G22KT 23/20 A2993 RMK A01 T02300202  RH  084%=      5-min Rain = 0
KSE2 150957Z 16016G22KT 23/20 A2993 RMK A01 T02300201  RH  084%=      5-min Rain = 0
KSE2 150958Z 16017KT 23/20 A2993 RMK A01 T02300201  RH  084%=      5-min Rain = 0
KSE2 150959Z 17018G24KT 23/20 A2993 RMK A01 T02310201  RH  083%=      5-min Rain = 0
KSE2 151000Z 17016KT 23/20 A2993 RMK A01 T02300201  RH  083%=      5-min Rain = 0
KSE2 151001Z 16012KT 23/20 A2993 RMK A01 T02300201  RH  083%=      5-min Rain = 0
KSE2 151002Z 17013KT 23/20 A2993 RMK A01 T02300201  RH  084%=      5-min Rain = 0
KSE2 151003Z 16016G22KT 23/20 A2993 RMK A01 T02300201  RH  084%=      5-min Rain = 0
KSE2 151004Z 16017G23KT 23/20 A2993 RMK A01 T02300201  RH  084%=      5-min Rain = 0
KSE2 151005Z 16014G20KT 23/20 A2993 RMK A01 T02300201  RH  083%=      5-min Rain = 0
KSE2 151006Z 17016KT 23/20 A2993 RMK A01 T02300201  RH  083%=      5-min Rain = 0
KSE2 151007Z 17015KT 23/20 A2993 RMK A01 T02300200  RH  083%=      5-min Rain = 0
KSE2 151008Z 16014G19KT 23/20 A2993 RMK A01 T02300201  RH  083%=      5-min Rain = 0
KSE2 151009Z 18014G19KT 23/20 A2993 RMK A01 T02300201  RH  083%=      5-min Rain = 0
KSE2 151010Z 16014G21KT 23/20 A2993 RMK A01 T02300200  RH  083%=      5-min Rain = 0
KSE2 151011Z 16010G16KT 23/20 A2993 RMK A01 T02300201  RH  084%=      5-min Rain = 0
KSE2 151012Z 16014G19KT 23/20 A2993 RMK A01 T02300200  RH  084%=      5-min Rain = 0
KSE2 151013Z 16016G23KT 23/20 A2992 RMK A01 T02300200  RH  083%=      5-min Rain = 0
KSE2 151014Z 16014KT 23/20 A2992 RMK A01 T02300200  RH  083%=      5-min Rain = 0
KSE2 151015Z 15013KT 23/20 A2992 RMK A01 T02300200  RH  084%=      5-min Rain = 0
KSE2 151016Z 15013KT 23/20 A2992 RMK A01 T02290200  RH  084%=      5-min Rain = 0
KSE2 151017Z 16010KT 23/20 A2992 RMK A01 T02290200  RH  084%=      5-min Rain = 0
KSE2 151018Z 16017G24KT 23/20 A2992 RMK A01 T02280200  RH  084%=      5-min Rain = 0
KSE2 151019Z 16014KT 23/20 A2992 RMK A01 T02280199  RH  084%=      5-min Rain = 0
KSE2 151020Z 16015G22KT 23/20 A2992 RMK A01 T02280199  RH  084%=      5-min Rain = 0
KSE2 151021Z 16014KT 23/20 A2992 RMK A01 T02280199  RH  084%=      5-min Rain = 0
KSE2 151022Z 16013G18KT 23/20 A2992 RMK A01 T02280199  RH  084%=      5-min Rain = 0
KSE2 151023Z 16013KT 23/20 A2992 RMK A01 T02270199  RH  084%=      5-min Rain = 0
KSE2 151024Z 16017G22KT 23/20 A2992 RMK A01 T02270199  RH  084%=      5-min Rain = 0
KSE2 151025Z 16013KT 23/20 A2992 RMK A01 T02270199  RH  084%=      5-min Rain = 0
KSE2 151026Z 16010KT 23/20 A2992 RMK A01 T02270199  RH  084%=      5-min Rain = 0
KSE2 151027Z 17010G16KT 23/20 A2992 RMK A01 T02260199  RH  084%=      5-min Rain = 0
KSE2 151028Z 16012KT 23/20 A2992 RMK A01 T02260199  RH  085%=      5-min Rain = 0
KSE2 151029Z 16013G20KT 23/20 A2992 RMK A01 T02260199  RH  085%=      5-min Rain = 0
KSE2 151030Z 16017G22KT 23/20 A2992 RMK A01 T02250198  RH  084%=      5-min Rain = 0
KSE2 151031Z 16013G18KT 23/20 A2992 RMK A01 T02250198  RH  084%=      5-min Rain = 0
KSE2 151032Z 17013KT 23/20 A2992 RMK A01 T02250198  RH  084%=      5-min Rain = 0
KSE2 151033Z 16013KT 23/20 A2992 RMK A01 T02250198  RH  084%=      5-min Rain = 0
KSE2 151034Z 16015G21KT 23/20 A2992 RMK A01 T02250197  RH  084%=      5-min Rain = 0
KSE2 151035Z 15014G19KT 23/20 A2992 RMK A01 T02250198  RH  085%=      5-min Rain = 0
KSE2 151036Z 16013KT 23/20 A2992 RMK A01 T02250198  RH  085%=      5-min Rain = 0
KSE2 151037Z 16010G16KT 22/20 A2992 RMK A01 T02240198  RH  085%=      5-min Rain = 0
KSE2 151038Z 16014G19KT 22/20 A2992 RMK A01 T02240198  RH  085%=      5-min Rain = 0
KSE2 151039Z 16014G19KT 22/20 A2992 RMK A01 T02230198  RH  085%=      5-min Rain = 0
KSE2 151040Z 16015KT 22/20 A2992 RMK A01 T02230198  RH  085%=      5-min Rain = 0
KSE2 151041Z 16010KT 22/20 A2992 RMK A01 T02230198  RH  086%=      5-min Rain = 0
KSE2 151042Z 16011G18KT 22/20 A2992 RMK A01 T02230198  RH  086%=      5-min Rain = 0
KSE2 151043Z 17013G19KT 22/20 A2992 RMK A01 T02220197  RH  086%=      5-min Rain = 0
KSE2 151044Z 15015KT 22/20 A2992 RMK A01 T02220197  RH  086%=      5-min Rain = 0
KSE2 151045Z 15014KT 22/20 A2992 RMK A01 T02220196  RH  085%=      5-min Rain = 0
KSE2 151046Z 16013G22KT 22/20 A2992 RMK A01 T02220196  RH  085%=      5-min Rain = 0
KSE2 151047Z 16017KT 22/20 A2992 RMK A01 T02220195  RH  085%=      5-min Rain = 0
KSE2 151048Z 16014G19KT 22/20 A2992 RMK A01 T02220195  RH  085%=      5-min Rain = 0
KSE2 151049Z 16015G21KT 22/20 A2992 RMK A01 T02220195  RH  085%=      5-min Rain = 0
KSE2 151050Z 16014G22KT 22/19 A2992 RMK A01 T02210194  RH  085%=      5-min Rain = 0
KSE2 151051Z 16013KT 22/19 A2992 RMK A01 T02210194  RH  085%=      5-min Rain = 0
KSE2 151052Z 16012KT 22/19 A2992 RMK A01 T02210194  RH  085%=      5-min Rain = 0
KSE2 151053Z 15013KT 22/19 A2992 RMK A01 T02210194  RH  085%=      5-min Rain = 0
KSE2 151054Z 16016KT 22/19 A2992 RMK A01 T02210194  RH  085%=      5-min Rain = 0
KSE2 151055Z 16012G19KT 22/19 A2992 RMK A01 T02200193  RH  085%=      5-min Rain = 0
KSE2 151056Z 17014KT 22/19 A2992 RMK A01 T02200194  RH  085%=      5-min Rain = 0
KSE2 151057Z 16012G18KT 22/19 A2992 RMK A01 T02200194  RH  085%=      5-min Rain = 0
KSE2 151058Z 17010G15KT 22/19 A2992 RMK A01 T02190194  RH  085%=      5-min Rain = 0
KSE2 151059Z 17013KT 22/19 A2992 RMK A01 T02190194  RH  086%=      5-min Rain = 0
KSE2 151100Z 16014KT 22/19 A2992 RMK A01 T02190194  RH  086%=      5-min Rain = 0
KSE2 151101Z 17011KT 22/19 A2992 RMK A01 T02190194  RH  085%=      5-min Rain = 0
KSE2 151102Z 16011KT 22/19 A2993 RMK A01 T02190193  RH  085%=      5-min Rain = 0
KSE2 151103Z 16010KT 22/19 A2993 RMK A01 T02190194  RH  086%=      5-min Rain = 0
KSE2 151104Z 16010KT 22/19 A2993 RMK A01 T02180193  RH  086%=      5-min Rain = 0
KSE2 151105Z 17012KT 22/19 A2993 RMK A01 T02180193  RH  086%=      5-min Rain = 0
KSE2 151106Z 17009KT 22/19 A2993 RMK A01 T02180193  RH  086%=      5-min Rain = 0
KSE2 151107Z 17008G14KT 22/19 A2994 RMK A01 T02180193  RH  086%=      5-min Rain = 0
KSE2 151108Z 16009KT 22/19 A2994 RMK A01 T02180193  RH  086%=      5-min Rain = 0
KSE2 151109Z 17009KT 22/19 A2994 RMK A01 T02170193  RH  086%=      5-min Rain = 0
KSE2 151110Z 16009KT 22/19 A2994 RMK A01 T02170193  RH  086%=      5-min Rain = 0
KSE2 151111Z 16010KT 22/19 A2993 RMK A01 T02170192  RH  086%=      5-min Rain = 0
KSE2 151112Z 16010KT 22/19 A2993 RMK A01 T02170193  RH  086%=      5-min Rain = 0
KSE2 151113Z 16011KT 22/19 A2993 RMK A01 T02170192  RH  086%=      5-min Rain = 0
KSE2 151114Z 15010KT 22/19 A2993 RMK A01 T02170193  RH  086%=      5-min Rain = 0
KSE2 151115Z 16011KT 22/19 A2993 RMK A01 T02160192  RH  086%=      5-min Rain = 0
KSE2 151116Z 17014KT 22/19 A2993 RMK A01 T02160193  RH  086%=      5-min Rain = 0
KSE2 151117Z 17011KT 22/19 A2993 RMK A01 T02160192  RH  086%=      5-min Rain = 0
KSE2 151118Z 18011G16KT 22/19 A2994 RMK A01 T02160192  RH  086%=      5-min Rain = 0
KSE2 151119Z 18013KT 22/19 A2994 RMK A01 T02160192  RH  086%=      5-min Rain = 0
KSE2 151120Z 17010G15KT 22/19 A2994 RMK A01 T02160192  RH  086%=      5-min Rain = 0
KSE2 151121Z 18010KT 22/19 A2995 RMK A01 T02160192  RH  086%=      5-min Rain = 0
KSE2 151122Z 18008G13KT 22/19 A2995 RMK A01 T02160192  RH  086%=      5-min Rain = 0
KSE2 151123Z 17011G16KT 22/19 A2995 RMK A01 T02160192  RH  086%=      5-min Rain = 0
KSE2 151124Z 16012G17KT 22/19 A2994 RMK A01 T02160192  RH  086%=      5-min Rain = 0
KSE2 151125Z 17011G16KT 22/19 A2994 RMK A01 T02160192  RH  086%=      5-min Rain = 0
KSE2 151126Z 17012G17KT 22/19 A2994 RMK A01 T02160192  RH  086%=      5-min Rain = 0
KSE2 151127Z 18011KT 22/19 A2994 RMK A01 T02160192  RH  086%=      5-min Rain = 0
KSE2 151128Z 17008KT 22/19 A2994 RMK A01 T02160192  RH  086%=      5-min Rain = 0
KSE2 151129Z 17009KT 22/19 A2994 RMK A01 T02150192  RH  086%=      5-min Rain = 0
KSE2 151130Z 17010KT 22/19 A2994 RMK A01 T02150192  RH  087%=      5-min Rain = 0
KSE2 151131Z 17014KT 22/19 A2994 RMK A01 T02150192  RH  087%=      5-min Rain = 0
KSE2 151132Z 18013G18KT 22/19 A2994 RMK A01 T02150192  RH  087%=      5-min Rain = 0
KSE2 151133Z 17011KT 22/19 A2994 RMK A01 T02150192  RH  087%=      5-min Rain = 0
KSE2 151134Z 18012KT 22/19 A2994 RMK A01 T02150192  RH  087%=      5-min Rain = 0
KSE2 151135Z 17009KT 22/19 A2995 RMK A01 T02150192  RH  087%=      5-min Rain = 0
KSE2 151136Z 18008G13KT 22/19 A2995 RMK A01 T02150192  RH  087%=      5-min Rain = 0
KSE2 151137Z 17012G17KT 22/19 A2995 RMK A01 T02150192  RH  087%=      5-min Rain = 0
KSE2 151138Z 18011KT 22/19 A2995 RMK A01 T02150192  RH  087%=      5-min Rain = 0
KSE2 151139Z 18010KT 22/19 A2995 RMK A01 T02150193  RH  087%=      5-min Rain = 0
KSE2 151140Z 17011G16KT 22/19 A2995 RMK A01 T02150192  RH  087%=      5-min Rain = 0
KSE2 151141Z 17012KT 22/19 A2995 RMK A01 T02150192  RH  087%=      5-min Rain = 0
KSE2 151142Z 19012KT 22/19 A2995 RMK A01 T02150192  RH  087%=      5-min Rain = 0
KSE2 151143Z 17009G15KT 22/19 A2995 RMK A01 T02150192  RH  087%=      5-min Rain = 0
KSE2 151144Z 19008KT 22/19 A2995 RMK A01 T02150192  RH  087%=      5-min Rain = 0
KSE2 151145Z 18007KT 22/19 A2995 RMK A01 T02150192  RH  087%=      5-min Rain = 0
KSE2 151146Z 19010KT 21/19 A2995 RMK A01 T02140192  RH  087%=      5-min Rain = 0
KSE2 151147Z 18011KT 21/19 A2995 RMK A01 T02140192  RH  087%=      5-min Rain = 0
KSE2 151148Z 19009KT 21/19 A2995 RMK A01 T02140192  RH  087%=      5-min Rain = 0
KSE2 151149Z 18007KT 22/19 A2995 RMK A01 T02150193  RH  087%=      5-min Rain = 0
KSE2 151150Z 18009G15KT 22/19 A2995 RMK A01 T02150192  RH  087%=      5-min Rain = 0
KSE2 151151Z 17016G21KT 22/19 A2994 RMK A01 T02150192  RH  087%=      5-min Rain = 0
KSE2 151152Z 18014G19KT 22/19 A2994 RMK A01 T02150192  RH  087%=      5-min Rain = 0
KSE2 151153Z 18013G18KT 22/19 A2994 RMK A01 T02150192  RH  087%=      5-min Rain = 0
KSE2 151154Z 17010KT 22/19 A2994 RMK A01 T02150192  RH  087%=      5-min Rain = 0
KSE2 151155Z 18014G20KT 22/19 A2994 RMK A01 T02150192  RH  087%=      5-min Rain = 0
KSE2 151156Z 18011G18KT 22/19 A2994 RMK A01 T02150192  RH  087%=      5-min Rain = 0
KSE2 151157Z 17011G17KT 22/19 A2994 RMK A01 T02150192  RH  087%=      5-min Rain = 0
KSE2 151158Z 19012KT 22/19 A2994 RMK A01 T02150192  RH  087%=      5-min Rain = 0
KSE2 151159Z 18013KT 22/19 A2994 RMK A01 T02150192  RH  087%=      5-min Rain = 0
KSE2 151200Z 18014KT 22/19 A2994 RMK A01 T02150192  RH  087%=      5-min Rain = 0
KSE2 151201Z 18011KT 22/19 A2994 RMK A01 T02150192  RH  087%=      5-min Rain = 0
KSE2 151202Z 18009G14KT 22/19 A2995 RMK A01 T02160192  RH  086%=      5-min Rain = 0
KSE2 151203Z 18010KT 22/19 A2995 RMK A01 T02160193  RH  087%=      5-min Rain = 0
KSE2 151204Z 18009G15KT 22/19 A2995 RMK A01 T02160193  RH  086%=      5-min Rain = 0
KSE2 151205Z 18010KT 22/19 A2994 RMK A01 T02160192  RH  086%=      5-min Rain = 0
KSE2 151206Z 18012KT 22/19 A2994 RMK A01 T02160192  RH  086%=      5-min Rain = 0
KSE2 151207Z 18011KT 22/19 A2994 RMK A01 T02160192  RH  086%=      5-min Rain = 0
KSE2 151208Z 18010G15KT 22/19 A2995 RMK A01 T02170192  RH  086%=      5-min Rain = 0
KSE2 151209Z 18011KT 22/19 A2995 RMK A01 T02170192  RH  086%=      5-min Rain = 0
KSE2 151210Z 19011KT 22/19 A2995 RMK A01 T02170192  RH  086%=      5-min Rain = 0
KSE2 151211Z 19009KT 22/19 A2995 RMK A01 T02170192  RH  086%=      5-min Rain = 0
KSE2 151212Z 19012G18KT 22/19 A2995 RMK A01 T02170192  RH  086%=      5-min Rain = 0
KSE2 151213Z 19013KT 22/19 A2995 RMK A01 T02170192  RH  086%=      5-min Rain = 0
KSE2 151214Z 18012G17KT 22/19 A2995 RMK A01 T02170192  RH  086%=      5-min Rain = 0
KSE2 151215Z 18010KT 22/19 A2995 RMK A01 T02170192  RH  086%=      5-min Rain = 0
KSE2 151216Z 17011KT 22/19 A2995 RMK A01 T02170192  RH  086%=      5-min Rain = 0
KSE2 151217Z 18010KT 22/19 A2995 RMK A01 T02170192  RH  086%=      5-min Rain = 0
KSE2 151218Z 18009KT 22/19 A2995 RMK A01 T02170192  RH  086%=      5-min Rain = 0
KSE2 151219Z 17007KT 22/19 A2995 RMK A01 T02170192  RH  086%=      5-min Rain = 0
KSE2 151220Z 18008KT 22/19 A2995 RMK A01 T02170193  RH  086%=      5-min Rain = 0
KSE2 151221Z 19007KT 22/19 A2995 RMK A01 T02170193  RH  086%=      5-min Rain = 0
KSE2 151222Z 18012KT 22/19 A2995 RMK A01 T02170193  RH  086%=      5-min Rain = 0
KSE2 151223Z 17011KT 22/19 A2995 RMK A01 T02170192  RH  086%=      5-min Rain = 0
KSE2 151224Z 17010G15KT 22/19 A2995 RMK A01 T02170192  RH  086%=      5-min Rain = 0
KSE2 151225Z 18011KT 22/19 A2995 RMK A01 T02170192  RH  086%=      5-min Rain = 0
KSE2 151226Z 17012KT 22/19 A2995 RMK A01 T02180193  RH  086%=      5-min Rain = 0
KSE2 151227Z 18011KT 22/19 A2995 RMK A01 T02180193  RH  086%=      5-min Rain = 0
KSE2 151228Z 18011G16KT 22/19 A2995 RMK A01 T02180193  RH  086%=      5-min Rain = 0
KSE2 151229Z 18011KT 22/19 A2995 RMK A01 T02180193  RH  086%=      5-min Rain = 0
KSE2 151230Z 18012KT 22/19 A2995 RMK A01 T02180192  RH  086%=      5-min Rain = 0
KSE2 151231Z 19009KT 22/19 A2995 RMK A01 T02180192  RH  085%=      5-min Rain = 0
KSE2 151232Z 19010KT 22/19 A2995 RMK A01 T02180193  RH  086%=      5-min Rain = 0
KSE2 151233Z 18008KT 22/19 A2995 RMK A01 T02190193  RH  085%=      5-min Rain = 0
KSE2 151234Z 17008KT 22/19 A2995 RMK A01 T02180193  RH  085%=      5-min Rain = 0
KSE2 151235Z 18010KT 22/19 A2995 RMK A01 T02190193  RH  085%=      5-min Rain = 0
KSE2 151236Z 18009KT 22/19 A2995 RMK A01 T02180193  RH  085%=      5-min Rain = 0
KSE2 151237Z 17006KT 22/19 A2995 RMK A01 T02180193  RH  085%=      5-min Rain = 0
KSE2 151238Z 18009G15KT 22/19 A2995 RMK A01 T02190193  RH  085%=      5-min Rain = 0
KSE2 151239Z 18013KT 22/19 A2995 RMK A01 T02190193  RH  085%=      5-min Rain = 0
KSE2 151240Z 18010KT 22/19 A2995 RMK A01 T02190193  RH  085%=      5-min Rain = 0
KSE2 151241Z 18010KT 22/19 A2995 RMK A01 T02190193  RH  085%=      5-min Rain = 0
KSE2 151242Z 18010KT 22/19 A2995 RMK A01 T02190193  RH  085%=      5-min Rain = 0
KSE2 151243Z 18009KT 22/19 A2995 RMK A01 T02190193  RH  085%=      5-min Rain = 0
KSE2 151244Z 18009KT 22/19 A2995 RMK A01 T02190194  RH  085%=      5-min Rain = 0
KSE2 151245Z 18009KT 22/19 A2995 RMK A01 T02200194  RH  085%=      5-min Rain = 0
KSE2 151246Z 17012KT 22/19 A2995 RMK A01 T02190194  RH  085%=      5-min Rain = 0
KSE2 151247Z 17011KT 22/19 A2995 RMK A01 T02200194  RH  085%=      5-min Rain = 0
KSE2 151248Z 18009G15KT 22/19 A2995 RMK A01 T02200194  RH  085%=      5-min Rain = 0
KSE2 151249Z 17011KT 22/19 A2994 RMK A01 T02200194  RH  085%=      5-min Rain = 0
KSE2 151250Z 18011KT 22/19 A2995 RMK A01 T02200193  RH  085%=      5-min Rain = 0
KSE2 151251Z 17012KT 22/19 A2995 RMK A01 T02200193  RH  085%=      5-min Rain = 0
KSE2 151252Z 17009G14KT 22/19 A2995 RMK A01 T02200194  RH  085%=      5-min Rain = 0
KSE2 151253Z 18010KT 22/19 A2995 RMK A01 T02200193  RH  085%=      5-min Rain = 0
KSE2 151254Z 16010KT 22/19 A2994 RMK A01 T02200193  RH  085%=      5-min Rain = 0
KSE2 151255Z 16012KT 22/19 A2994 RMK A01 T02200194  RH  085%=      5-min Rain = 0
KSE2 151256Z 17008KT 22/19 A2994 RMK A01 T02200194  RH  085%=      5-min Rain = 0
KSE2 151257Z 17009KT 22/19 A2994 RMK A01 T02200194  RH  085%=      5-min Rain = 0
KSE2 151258Z 17011G20KT 22/19 A2994 RMK A01 T02200194  RH  085%=      5-min Rain = 0
KSE2 151259Z 17011KT 22/19 A2994 RMK A01 T02200194  RH  085%=      5-min Rain = 0
KSE2 151300Z 17012KT 22/19 A2995 RMK A01 T02200194  RH  085%=      5-min Rain = 0
KSE2 151301Z 18010KT 22/19 A2995 RMK A01 T02200194  RH  085%=      5-min Rain = 0
KSE2 151302Z 16009KT 22/19 A2995 RMK A01 T02210194  RH  085%=      5-min Rain = 0
KSE2 151303Z 17010KT 22/20 A2995 RMK A01 T02220195  RH  085%=      5-min Rain = 0
KSE2 151304Z 17011KT 22/20 A2995 RMK A01 T02220195  RH  084%=      5-min Rain = 0
KSE2 151305Z 17008KT 22/20 A2995 RMK A01 T02230195  RH  084%=      5-min Rain = 0
KSE2 151306Z 18010G15KT 22/20 A2995 RMK A01 T02230195  RH  084%=      5-min Rain = 0
KSE2 151307Z 18008KT 22/20 A2995 RMK A01 T02230195  RH  084%=      5-min Rain = 0
KSE2 151308Z 16013G18KT 22/20 A2995 RMK A01 T02230195  RH  084%=      5-min Rain = 0
KSE2 151309Z 17009KT 22/20 A2995 RMK A01 T02230195  RH  084%=      5-min Rain = 0
KSE2 151310Z 17010G15KT 22/20 A2995 RMK A01 T02230195  RH  084%=      5-min Rain = 0
KSE2 151311Z 17013KT 22/20 A2995 RMK A01 T02230195  RH  084%=      5-min Rain = 0
KSE2 151312Z 17008KT 22/20 A2995 RMK A01 T02230195  RH  084%=      5-min Rain = 0
KSE2 151313Z 17010G15KT 22/20 A2995 RMK A01 T02240195  RH  084%=      5-min Rain = 0
KSE2 151314Z 17009KT 22/20 A2995 RMK A01 T02240195  RH  084%=      5-min Rain = 0
KSE2 151315Z 17014G20KT 22/20 A2995 RMK A01 T02240196  RH  084%=      5-min Rain = 0
KSE2 151316Z 17012G19KT 22/20 A2995 RMK A01 T02240195  RH  083%=      5-min Rain = 0
KSE2 151317Z 17012G17KT 23/20 A2995 RMK A01 T02250195  RH  083%=      5-min Rain = 0
KSE2 151318Z 17013KT 23/20 A2995 RMK A01 T02250195  RH  083%=      5-min Rain = 0
KSE2 151319Z 16010G15KT 23/20 A2995 RMK A01 T02250196  RH  083%=      5-min Rain = 0
KSE2 151320Z 17007KT 23/20 A2995 RMK A01 T02250196  RH  084%=      5-min Rain = 0
KSE2 151321Z 17010KT 23/20 A2994 RMK A01 T02260196  RH  083%=      5-min Rain = 0
KSE2 151322Z 16010KT 23/20 A2994 RMK A01 T02260196  RH  083%=      5-min Rain = 0
KSE2 151323Z 16011KT 23/20 A2994 RMK A01 T02260196  RH  083%=      5-min Rain = 0
KSE2 151324Z 16012G17KT 23/20 A2994 RMK A01 T02260196  RH  083%=      5-min Rain = 0
KSE2 151325Z 16012KT 23/20 A2994 RMK A01 T02270196  RH  083%=      5-min Rain = 0
KSE2 151326Z 17011G17KT 23/20 A2994 RMK A01 T02280197  RH  083%=      5-min Rain = 0
KSE2 151327Z 16009G17KT 23/20 A2994 RMK A01 T02290197  RH  082%=      5-min Rain = 0
KSE2 151328Z 17008KT 23/20 A2994 RMK A01 T02300198  RH  082%=      5-min Rain = 0
KSE2 151329Z 16009G18KT 23/20 A2994 RMK A01 T02300198  RH  082%=      5-min Rain = 0
KSE2 151330Z 18013G18KT 23/20 A2994 RMK A01 T02300197  RH  081%=      5-min Rain = 0
KSE2 151331Z 16013KT 23/20 A2994 RMK A01 T02300197  RH  081%=      5-min Rain = 0
KSE2 151332Z 16010G15KT 23/20 A2994 RMK A01 T02300197  RH  082%=      5-min Rain = 0
KSE2 151333Z 16015KT 23/20 A2994 RMK A01 T02300197  RH  081%=      5-min Rain = 0
KSE2 151334Z 17013KT 23/20 A2994 RMK A01 T02310196  RH  081%=      5-min Rain = 0
KSE2 151335Z 16013KT 23/20 A2994 RMK A01 T02310197  RH  081%=      5-min Rain = 0
KSE2 151336Z 16013G20KT 23/20 A2994 RMK A01 T02300196  RH  081%=      5-min Rain = 0
KSE2 151337Z 17013G20KT 23/20 A2994 RMK A01 T02300197  RH  081%=      5-min Rain = 0
KSE2 151338Z 17012G18KT 23/20 A2994 RMK A01 T02300196  RH  081%=      5-min Rain = 0
KSE2 151339Z 16014G19KT 23/20 A2994 RMK A01 T02300196  RH  081%=      5-min Rain = 0
KSE2 151340Z 17015G21KT 23/20 A2994 RMK A01 T02300196  RH  081%=      5-min Rain = 0
KSE2 151341Z 17015G22KT 23/20 A2995 RMK A01 T02300196  RH  081%=      5-min Rain = 0
KSE2 151342Z 18016KT 23/20 A2995 RMK A01 T02300196  RH  081%=      5-min Rain = 0
KSE2 151343Z 17018KT 23/20 A2995 RMK A01 T02300196  RH  081%=      5-min Rain = 0
KSE2 151344Z 17015KT 23/20 A2995 RMK A01 T02300196  RH  081%=      5-min Rain = 0
KSE2 151345Z 16011KT 23/20 A2995 RMK A01 T02310197  RH  081%=      5-min Rain = 0
KSE2 151346Z 16011KT 23/20 A2995 RMK A01 T02320198  RH  081%=      5-min Rain = 0
KSE2 151347Z 17012G18KT 23/20 A2995 RMK A01 T02330198  RH  080%=      5-min Rain = 0
KSE2 151348Z 17011G16KT 24/20 A2995 RMK A01 T02350198  RH  080%=      5-min Rain = 0
KSE2 151349Z 17014G21KT 24/20 A2995 RMK A01 T02360198  RH  079%=      5-min Rain = 0
KSE2 151350Z 17012KT 24/20 A2995 RMK A01 T02360198  RH  079%=      5-min Rain = 0
KSE2 151351Z 18015G21KT 24/20 A2995 RMK A01 T02360198  RH  079%=      5-min Rain = 0
KSE2 151352Z 16014G19KT 24/20 A2994 RMK A01 T02370198  RH  079%=      5-min Rain = 0
KSE2 151353Z 17012KT 24/20 A2994 RMK A01 T02370198  RH  079%=      5-min Rain = 0
KSE2 151354Z 17014KT 24/20 A2994 RMK A01 T02380199  RH  079%=      5-min Rain = 0
KSE2 151355Z 16014KT 24/20 A2994 RMK A01 T02390198  RH  078%=      5-min Rain = 0
KSE2 151356Z 16013G18KT 24/20 A2994 RMK A01 T02380198  RH  078%=      5-min Rain = 0
KSE2 151357Z 16014G20KT 24/20 A2994 RMK A01 T02390199  RH  078%=      5-min Rain = 0
KSE2 151358Z 17013G18KT 24/20 A2994 RMK A01 T02390199  RH  078%=      5-min Rain = 0
KSE2 151359Z 16011G19KT 24/20 A2994 RMK A01 T02380199  RH  079%=      5-min Rain = 0
KSE2 151400Z 16017KT 24/20 A2994 RMK A01 T02390199  RH  079%=      5-min Rain = 0
KSE2 151401Z 18016KT 24/20 A2994 RMK A01 T02380199  RH  079%=      5-min Rain = 0
KSE2 151402Z 18014G20KT 24/20 A2994 RMK A01 T02370198  RH  079%=      5-min Rain = 0
KSE2 151403Z 17015G20KT 24/20 A2995 RMK A01 T02370199  RH  079%=      5-min Rain = 0
KSE2 151404Z 17016G21KT 24/20 A2995 RMK A01 T02370199  RH  079%=      5-min Rain = 0
KSE2 151405Z 18013G18KT 24/20 A2995 RMK A01 T02380200  RH  079%=      5-min Rain = 0
KSE2 151406Z 17013KT 24/20 A2995 RMK A01 T02400200  RH  078%=      5-min Rain = 0
KSE2 151407Z 17012G19KT 24/20 A2995 RMK A01 T02420201  RH  078%=      5-min Rain = 0
KSE2 151408Z 18014KT 24/20 A2995 RMK A01 T02430201  RH  077%=      5-min Rain = 0
KSE2 151409Z 18009G16KT 24/20 A2995 RMK A01 T02440201  RH  077%=      5-min Rain = 0
KSE2 151410Z 18012G17KT 24/20 A2995 RMK A01 T02440202  RH  077%=      5-min Rain = 0
KSE2 151411Z 18013G19KT 24/20 A2995 RMK A01 T02440201  RH  077%=      5-min Rain = 0
KSE2 151412Z 18012KT 24/20 A2995 RMK A01 T02430200  RH  077%=      5-min Rain = 0
KSE2 151413Z 17009KT 24/20 A2995 RMK A01 T02420201  RH  078%=      5-min Rain = 0
KSE2 151414Z 17009KT 24/20 A2995 RMK A01 T02430203  RH  078%=      5-min Rain = 0
KSE2 151415Z 18013G18KT 24/20 A2995 RMK A01 T02440202  RH  077%=      5-min Rain = 0
KSE2 151416Z 18014G20KT 24/20 A2995 RMK A01 T02440202  RH  077%=      5-min Rain = 0
KSE2 151417Z 18011KT 24/20 A2995 RMK A01 T02440201  RH  077%=      5-min Rain = 0
KSE2 151418Z 17011G17KT 24/20 A2994 RMK A01 T02440202  RH  077%=      5-min Rain = 0
KSE2 151419Z 18014KT 24/20 A2994 RMK A01 T02440201  RH  077%=      5-min Rain = 0
KSE2 151420Z 17013G18KT 24/20 A2994 RMK A01 T02440201  RH  077%=      5-min Rain = 0
KSE2 151421Z 17015G20KT 25/20 A2994 RMK A01 T02450201  RH  077%=      5-min Rain = 0
KSE2 151422Z 17014G19KT 25/20 A2994 RMK A01 T02450201  RH  077%=      5-min Rain = 0
KSE2 151423Z 17017G22KT 25/20 A2994 RMK A01 T02450201  RH  076%=      5-min Rain = 0
KSE2 151424Z 16016G21KT 24/20 A2994 RMK A01 T02440200  RH  077%=      5-min Rain = 0
KSE2 151425Z 17013G21KT 24/20 A2994 RMK A01 T02440201  RH  077%=      5-min Rain = 0
KSE2 151426Z 19012G20KT 24/20 A2994 RMK A01 T02430201  RH  077%=      5-min Rain = 0
KSE2 151427Z 18016KT 24/20 A2995 RMK A01 T02430201  RH  077%=      5-min Rain = 0
KSE2 151428Z 18014KT 24/20 A2995 RMK A01 T02420201  RH  078%=      5-min Rain = 0
KSE2 151429Z 17014KT 24/20 A2994 RMK A01 T02410201  RH  078%=      5-min Rain = 0
KSE2 151430Z 18013G19KT 24/20 A2995 RMK A01 T02400201  RH  079%=      5-min Rain = 0
KSE2 151431Z 18013KT 24/20 A2995 RMK A01 T02400201  RH  079%=      5-min Rain = 0
KSE2 151432Z 18012KT 24/20 A2995 RMK A01 T02390201  RH  079%=      5-min Rain = 0
KSE2 151433Z 18011KT 24/20 A2995 RMK A01 T02390201  RH  079%=      5-min Rain = 0
KSE2 151434Z 18013G18KT 24/20 A2995 RMK A01 T02390201  RH  079%=      5-min Rain = 0
KSE2 151435Z 18012KT 24/20 A2995 RMK A01 T02400201  RH  079%=      5-min Rain = 0
KSE2 151436Z 17012KT 24/20 A2995 RMK A01 T02400201  RH  079%=      5-min Rain = 0
KSE2 151437Z 17014KT 24/20 A2995 RMK A01 T02390201  RH  079%=      5-min Rain = 0
KSE2 151438Z 17011G16KT 24/20 A2995 RMK A01 T02390201  RH  079%=      5-min Rain = 0
KSE2 151439Z 17011KT 24/20 A2995 RMK A01 T02400202  RH  079%=      5-min Rain = 0
KSE2 151440Z 18012KT 24/20 A2995 RMK A01 T02410202  RH  079%=      5-min Rain = 0
KSE2 151441Z 17014G19KT 24/20 A2995 RMK A01 T02420202  RH  078%=      5-min Rain = 0
KSE2 151442Z 17016KT 24/20 A2995 RMK A01 T02420202  RH  078%=      5-min Rain = 0
KSE2 151443Z 18011G16KT 24/20 A2995 RMK A01 T02410201  RH  078%=      5-min Rain = 0
KSE2 151444Z 18014G19KT 24/20 A2995 RMK A01 T02410202  RH  079%=      5-min Rain = 0
KSE2 151445Z 18014KT 24/20 A2995 RMK A01 T02410201  RH  078%=      5-min Rain = 0
KSE2 151446Z 17012KT 24/20 A2995 RMK A01 T02410202  RH  079%=      5-min Rain = 0
KSE2 151447Z 18012KT 24/20 A2995 RMK A01 T02410202  RH  079%=      5-min Rain = 0
KSE2 151448Z 18009KT 24/20 A2995 RMK A01 T02410203  RH  079%=      5-min Rain = 0
KSE2 151449Z 18014G19KT 24/20 A2995 RMK A01 T02430204  RH  079%=      5-min Rain = 0
KSE2 151450Z 17012G18KT 24/20 A2995 RMK A01 T02430203  RH  078%=      5-min Rain = 0
KSE2 151451Z 17010KT 24/20 A2995 RMK A01 T02430203  RH  078%=      5-min Rain = 0
KSE2 151452Z 16014KT 24/20 A2995 RMK A01 T02440203  RH  078%=      5-min Rain = 0
KSE2 151453Z 16012G18KT 25/20 A2995 RMK A01 T02450203  RH  078%=      5-min Rain = 0
KSE2 151454Z 16014KT 25/21 A2994 RMK A01 T02470205  RH  077%=      5-min Rain = 0
KSE2 151455Z 15014KT 25/20 A2994 RMK A01 T02490204  RH  076%=      5-min Rain = 0
KSE2 151456Z 15014G19KT 25/20 A2994 RMK A01 T02510204  RH  075%=      5-min Rain = 0
KSE2 151457Z 16014G19KT 25/20 A2994 RMK A01 T02510204  RH  075%=      5-min Rain = 0
KSE2 151458Z 17015KT 25/20 A2994 RMK A01 T02510204  RH  075%=      5-min Rain = 0
KSE2 151459Z 16011KT 25/20 A2994 RMK A01 T02510204  RH  075%=      5-min Rain = 0
KSE2 151500Z 17014G19KT 25/20 A2994 RMK A01 T02510204  RH  075%=      5-min Rain = 0
KSE2 151501Z 16012KT 25/20 A2995 RMK A01 T02520204  RH  075%=      5-min Rain = 0
KSE2 151502Z 17012G18KT 25/21 A2995 RMK A01 T02530205  RH  075%=      5-min Rain = 0
KSE2 151503Z 15013KT 25/21 A2994 RMK A01 T02540205  RH  074%=      5-min Rain = 0
KSE2 151504Z 15013G18KT 25/21 A2994 RMK A01 T02530205  RH  075%=      5-min Rain = 0
KSE2 151505Z 16015KT 25/20 A2994 RMK A01 T02530204  RH  074%=      5-min Rain = 0
KSE2 151506Z 18011KT 25/21 A2994 RMK A01 T02520205  RH  075%=      5-min Rain = 0
KSE2 151507Z 17011KT 25/21 A2994 RMK A01 T02540207  RH  075%=      5-min Rain = 0
KSE2 151508Z 19014KT 26/21 A2994 RMK A01 T02550205  RH  074%=      5-min Rain = 0
KSE2 151509Z 19013KT 25/20 A2994 RMK A01 T02540204  RH  074%=      5-min Rain = 0
KSE2 151510Z 17012KT 25/21 A2994 RMK A01 T02530206  RH  075%=      5-min Rain = 0
KSE2 151511Z 18013KT 26/21 A2994 RMK A01 T02550205  RH  074%=      5-min Rain = 0
KSE2 151512Z 17012KT 26/21 A2994 RMK A01 T02560206  RH  074%=      5-min Rain = 0
KSE2 151513Z 15013KT 26/21 A2994 RMK A01 T02570206  RH  073%=      5-min Rain = 0
KSE2 151514Z 16014G20KT 26/21 A2994 RMK A01 T02570205  RH  073%=      5-min Rain = 0
KSE2 151515Z 16016KT 26/20 A2994 RMK A01 T02570204  RH  073%=      5-min Rain = 0
KSE2 151516Z 16016KT 26/20 A2994 RMK A01 T02560204  RH  073%=      5-min Rain = 0
KSE2 151517Z 15012KT 26/20 A2994 RMK A01 T02560204  RH  073%=      5-min Rain = 0
KSE2 151518Z 16012G18KT 26/21 A2994 RMK A01 T02570206  RH  073%=      5-min Rain = 0
KSE2 151519Z 17011G17KT 26/21 A2994 RMK A01 T02580207  RH  073%=      5-min Rain = 0
KSE2 151520Z 17013KT 26/21 A2994 RMK A01 T02600207  RH  072%=      5-min Rain = 0
KSE2 151521Z 16012G17KT 26/21 A2994 RMK A01 T02610207  RH  072%=      5-min Rain = 0
KSE2 151522Z 15012G19KT 26/21 A2994 RMK A01 T02600206  RH  072%=      5-min Rain = 0
KSE2 151523Z 16015G21KT 26/21 A2994 RMK A01 T02600206  RH  072%=      5-min Rain = 0
KSE2 151524Z 17012G17KT 26/20 A2994 RMK A01 T02590203  RH  071%=      5-min Rain = 0
KSE2 151525Z 15012KT 26/21 A2994 RMK A01 T02590205  RH  072%=      5-min Rain = 0
KSE2 151526Z 17012G17KT 26/21 A2994 RMK A01 T02600205  RH  071%=      5-min Rain = 0
KSE2 151527Z 16014G20KT 26/21 A2994 RMK A01 T02620206  RH  071%=      5-min Rain = 0
KSE2 151528Z 15015KT 26/20 A2994 RMK A01 T02610203  RH  070%=      5-min Rain = 0
KSE2 151529Z 16013G20KT 26/21 A2994 RMK A01 T02600205  RH  071%=      5-min Rain = 0
KSE2 151530Z 17014KT 26/20 A2994 RMK A01 T02600204  RH  071%=      5-min Rain = 0
KSE2 151531Z 17009KT 26/21 A2994 RMK A01 T02600205  RH  072%=      5-min Rain = 0
KSE2 151532Z 17007G13KT 26/21 A2994 RMK A01 T02610209  RH  073%=      5-min Rain = 0
KSE2 151533Z 16012G17KT 27/21 A2994 RMK A01 T02650210  RH  072%=      5-min Rain = 0
KSE2 151534Z 16013KT 27/21 A2994 RMK A01 T02660207  RH  070%=      5-min Rain = 0
KSE2 151535Z 16013KT 27/21 A2994 RMK A01 T02650207  RH  070%=      5-min Rain = 0
KSE2 151536Z 14012G19KT 26/21 A2994 RMK A01 T02640207  RH  071%=      5-min Rain = 0
KSE2 151537Z 15014KT 26/21 A2994 RMK A01 T02640205  RH  070%=      5-min Rain = 0
KSE2 151538Z 17009KT 26/21 A2994 RMK A01 T02640207  RH  071%=      5-min Rain = 0
KSE2 151539Z 16010G16KT 27/21 A2994 RMK A01 T02660210  RH  071%=      5-min Rain = 0
KSE2 151540Z 16009KT 27/21 A2994 RMK A01 T02680209  RH  070%=      5-min Rain = 0
KSE2 151541Z 18013G20KT 27/21 A2994 RMK A01 T02690210  RH  070%=      5-min Rain = 0
KSE2 151542Z 17014KT 27/21 A2994 RMK A01 T02680205  RH  068%=      5-min Rain = 0
KSE2 151543Z 17012G18KT 27/21 A2994 RMK A01 T02660205  RH  069%=      5-min Rain = 0
KSE2 151544Z 17014KT 27/21 A2994 RMK A01 T02650205  RH  070%=      5-min Rain = 0
KSE2 151545Z 17014KT 27/21 A2994 RMK A01 T02650205  RH  070%=      5-min Rain = 0
KSE2 151546Z 17012KT 27/21 A2994 RMK A01 T02650205  RH  070%=      5-min Rain = 0
KSE2 151547Z 15014G19KT 27/21 A2994 RMK A01 T02650206  RH  070%=      5-min Rain = 0
KSE2 151548Z 16013G18KT 27/21 A2994 RMK A01 T02650206  RH  070%=      5-min Rain = 0
KSE2 151549Z 16015KT 27/21 A2994 RMK A01 T02660205  RH  069%=      5-min Rain = 0
KSE2 151550Z 16010KT 27/21 A2994 RMK A01 T02660207  RH  070%=      5-min Rain = 0
KSE2 151551Z 16012G17KT 27/21 A2994 RMK A01 T02680208  RH  070%=      5-min Rain = 0
KSE2 151552Z 16015KT 27/21 A2994 RMK A01 T02690206  RH  069%=      5-min Rain = 0
KSE2 151553Z 17011G16KT 27/21 A2994 RMK A01 T02680206  RH  069%=      5-min Rain = 0
KSE2 151554Z 17012G18KT 27/21 A2994 RMK A01 T02670205  RH  069%=      5-min Rain = 0
KSE2 151555Z 17012G17KT 27/21 A2994 RMK A01 T02680205  RH  069%=      5-min Rain = 0
KSE2 151556Z 18014KT 27/21 A2994 RMK A01 T02680207  RH  069%=      5-min Rain = 0
KSE2 151557Z 18012G18KT 27/21 A2994 RMK A01 T02690208  RH  069%=      5-min Rain = 0
KSE2 151558Z 18011KT 27/21 A2994 RMK A01 T02700207  RH  069%=      5-min Rain = 0
KSE2 151559Z 18011G16KT 27/21 A2994 RMK A01 T02700209  RH  069%=      5-min Rain = 0
KSE2 151600Z 17017KT 27/21 A2994 RMK A01 T02710209  RH  069%=      5-min Rain = 0
KSE2 151601Z 17013G18KT 27/21 A2994 RMK A01 T02710209  RH  069%=      5-min Rain = 0
KSE2 151602Z 17013G18KT 27/21 A2994 RMK A01 T02700207  RH  068%=      5-min Rain = 0
KSE2 151603Z 17015G21KT 27/21 A2994 RMK A01 T02690207  RH  069%=      5-min Rain = 0
KSE2 151604Z 17015KT 27/21 A2994 RMK A01 T02690206  RH  068%=      5-min Rain = 0
KSE2 151605Z 18010G15KT 27/21 A2994 RMK A01 T02680209  RH  070%=      5-min Rain = 0
KSE2 151606Z 18009KT 27/21 A2994 RMK A01 T02690210  RH  070%=      5-min Rain = 0
KSE2 151607Z 18006KT 27/21 A2994 RMK A01 T02710211  RH  070%=      5-min Rain = 0
KSE2 151608Z 18011G17KT 27/21 A2994 RMK A01 T02720213  RH  070%=      5-min Rain = 0
KSE2 151609Z 16009KT 27/21 A2994 RMK A01 T02730211  RH  069%=      5-min Rain = 0
KSE2 151610Z 16009KT 27/21 A2994 RMK A01 T02730211  RH  069%=      5-min Rain = 0
KSE2 151611Z 16010G19KT 27/21 A2994 RMK A01 T02720211  RH  069%=      5-min Rain = 0
KSE2 151612Z 17013G18KT 27/21 A2994 RMK A01 T02710209  RH  069%=      5-min Rain = 0
KSE2 151613Z 15014KT 27/21 A2994 RMK A01 T02700208  RH  069%=      5-min Rain = 0
KSE2 151614Z 16016KT 27/21 A2994 RMK A01 T02690207  RH  069%=      5-min Rain = 0
KSE2 151615Z 16013G19KT 27/21 A2994 RMK A01 T02680208  RH  070%=      5-min Rain = 0
KSE2 151616Z 17012KT 27/21 A2994 RMK A01 T02680207  RH  069%=      5-min Rain = 0
KSE2 151617Z 16008G13KT 27/21 A2994 RMK A01 T02690210  RH  070%=      5-min Rain = 0
KSE2 151618Z 15011G16KT 27/21 A2994 RMK A01 T02710211  RH  070%=      5-min Rain = 0
KSE2 151619Z 16015KT 27/21 A2994 RMK A01 T02720208  RH  068%=      5-min Rain = 0
KSE2 151620Z 17013KT 27/21 A2994 RMK A01 T02710207  RH  068%=      5-min Rain = 0
KSE2 151621Z 17012KT 27/21 A2994 RMK A01 T02700208  RH  069%=      5-min Rain = 0
KSE2 151622Z 16010KT 27/21 A2994 RMK A01 T02710210  RH  069%=      5-min Rain = 0
KSE2 151623Z 17011G19KT 27/21 A2994 RMK A01 T02730211  RH  069%=      5-min Rain = 0
KSE2 151624Z 18014G20KT 27/21 A2994 RMK A01 T02740209  RH  067%=      5-min Rain = 0
KSE2 151625Z 18012KT 27/21 A2994 RMK A01 T02730208  RH  068%=      5-min Rain = 0
KSE2 151626Z 17011KT 27/21 A2994 RMK A01 T02730209  RH  068%=      5-min Rain = 0
KSE2 151627Z 17012KT 27/21 A2994 RMK A01 T02740212  RH  069%=      5-min Rain = 0
KSE2 151628Z 17011G17KT 28/21 A2994 RMK A01 T02760213  RH  069%=      5-min Rain = 0
KSE2 151629Z 17009KT 28/21 A2995 RMK A01 T02760211  RH  068%=      5-min Rain = 0
KSE2 151630Z 16008KT 28/21 A2995 RMK A01 T02770213  RH  068%=      5-min Rain = 0
KSE2 151631Z 16011G16KT 28/21 A2995 RMK A01 T02780213  RH  068%=      5-min Rain = 0
KSE2 151632Z 16014G19KT 28/21 A2995 RMK A01 T02780211  RH  067%=      5-min Rain = 0
KSE2 151633Z 16015KT 28/21 A2995 RMK A01 T02760208  RH  067%=      5-min Rain = 0
KSE2 151634Z 17012KT 27/21 A2995 RMK A01 T02730208  RH  068%=      5-min Rain = 0
KSE2 151635Z 18015KT 27/21 A2995 RMK A01 T02730209  RH  068%=      5-min Rain = 0
KSE2 151636Z 19011G16KT 27/21 A2995 RMK A01 T02730210  RH  068%=      5-min Rain = 0
KSE2 151637Z 18012KT 27/21 A2995 RMK A01 T02740208  RH  067%=      5-min Rain = 0
KSE2 151638Z 18010KT 28/21 A2995 RMK A01 T02760211  RH  068%=      5-min Rain = 0
KSE2 151639Z 17010G15KT 28/21 A2995 RMK A01 T02780211  RH  067%=      5-min Rain = 0
KSE2 151640Z 18012G17KT 28/21 A2995 RMK A01 T02780211  RH  067%=      5-min Rain = 0
KSE2 151641Z 18015G20KT 28/21 A2995 RMK A01 T02790211  RH  067%=      5-min Rain = 0
KSE2 151642Z 17015KT 28/21 A2995 RMK A01 T02790209  RH  066%=      5-min Rain = 0
KSE2 151643Z 18012KT 28/21 A2995 RMK A01 T02770210  RH  067%=      5-min Rain = 0
KSE2 151644Z 17015G20KT 28/21 A2995 RMK A01 T02770209  RH  067%=      5-min Rain = 0
KSE2 151645Z 17015G21KT 28/21 A2995 RMK A01 T02770208  RH  066%=      5-min Rain = 0
KSE2 151646Z 18014G19KT 28/21 A2995 RMK A01 T02760209  RH  067%=      5-min Rain = 0
KSE2 151647Z 17016KT 28/21 A2995 RMK A01 T02770209  RH  066%=      5-min Rain = 0
KSE2 151648Z 17011G17KT 28/21 A2995 RMK A01 T02770210  RH  067%=      5-min Rain = 0
KSE2 151649Z 18013G18KT 28/21 A2995 RMK A01 T02790213  RH  067%=      5-min Rain = 0
KSE2 151650Z 18011KT 28/21 A2995 RMK A01 T02810212  RH  066%=      5-min Rain = 0
KSE2 151651Z 18014G20KT 28/21 A2995 RMK A01 T02800211  RH  066%=      5-min Rain = 0
KSE2 151652Z 16013G18KT 28/21 A2995 RMK A01 T02800211  RH  066%=      5-min Rain = 0
KSE2 151653Z 17012KT 28/21 A2995 RMK A01 T02800210  RH  066%=      5-min Rain = 0
KSE2 151654Z 17014G19KT 28/21 A2995 RMK A01 T02820211  RH  065%=      5-min Rain = 0
KSE2 151655Z 15014G21KT 28/21 A2995 RMK A01 T02820209  RH  065%=      5-min Rain = 0
KSE2 151656Z 16014G19KT 28/21 A2995 RMK A01 T02800211  RH  066%=      5-min Rain = 0
KSE2 151657Z 15015KT 28/21 A2995 RMK A01 T02800209  RH  065%=      5-min Rain = 0
KSE2 151658Z 15016G21KT 28/21 A2995 RMK A01 T02800210  RH  066%=      5-min Rain = 0
KSE2 151659Z 15016KT 28/21 A2995 RMK A01 T02790208  RH  065%=      5-min Rain = 0
KSE2 151700Z 15016KT 28/21 A2995 RMK A01 T02780207  RH  065%=      5-min Rain = 0
KSE2 151701Z 16015G21KT 28/21 A2995 RMK A01 T02780210  RH  066%=      5-min Rain = 0
KSE2 151702Z 16014KT 28/21 A2995 RMK A01 T02780209  RH  066%=      5-min Rain = 0
KSE2 151703Z 16014KT 28/21 A2995 RMK A01 T02780210  RH  066%=      5-min Rain = 0
KSE2 151704Z 16012G17KT 28/21 A2995 RMK A01 T02790211  RH  067%=      5-min Rain = 0
KSE2 151705Z 16010KT 28/21 A2995 RMK A01 T02810214  RH  067%=      5-min Rain = 0
KSE2 151706Z 17014G20KT 28/21 A2995 RMK A01 T02820212  RH  066%=      5-min Rain = 0
KSE2 151707Z 16013KT 28/21 A2995 RMK A01 T02820210  RH  065%=      5-min Rain = 0
KSE2 151708Z 15015G20KT 28/21 A2995 RMK A01 T02810211  RH  065%=      5-min Rain = 0
KSE2 151709Z 14014KT 28/21 A2995 RMK A01 T02810210  RH  066%=      5-min Rain = 0
KSE2 151710Z 16012G19KT 28/21 A2995 RMK A01 T02800210  RH  066%=      5-min Rain = 0
KSE2 151711Z 16012G19KT 28/21 A2995 RMK A01 T02820214  RH  066%=      5-min Rain = 0
KSE2 151712Z 15016KT 28/21 A2995 RMK A01 T02830210  RH  064%=      5-min Rain = 0
KSE2 151713Z 15011KT 28/21 A2995 RMK A01 T02810210  RH  065%=      5-min Rain = 0
KSE2 151714Z 17011G16KT 28/21 A2995 RMK A01 T02820214  RH  067%=      5-min Rain = 0
KSE2 151715Z 17012G17KT 28/21 A2995 RMK A01 T02840213  RH  065%=      5-min Rain = 0
KSE2 151716Z 16016G21KT 29/21 A2995 RMK A01 T02850211  RH  064%=      5-min Rain = 0
KSE2 151717Z 15011G18KT 28/21 A2995 RMK A01 T02840212  RH  065%=      5-min Rain = 0
KSE2 151718Z 18010G17KT 29/21 A2995 RMK A01 T02850214  RH  066%=      5-min Rain = 0
KSE2 151719Z 17012G18KT 29/21 A2995 RMK A01 T02870213  RH  065%=      5-min Rain = 0
KSE2 151720Z 18011KT 29/21 A2995 RMK A01 T02870213  RH  065%=      5-min Rain = 0
KSE2 151721Z 19010G17KT 29/22 A2995 RMK A01 T02880215  RH  065%=      5-min Rain = 0
KSE2 151722Z 18014G20KT 29/21 A2995 RMK A01 T02890213  RH  063%=      5-min Rain = 0
KSE2 151723Z 19015G20KT 29/21 A2995 RMK A01 T02890209  RH  062%=      5-min Rain = 0
KSE2 151724Z 19015KT 29/21 A2995 RMK A01 T02860209  RH  063%=      5-min Rain = 0
KSE2 151725Z 18014G19KT 29/21 A2995 RMK A01 T02850208  RH  063%=      5-min Rain = 0
KSE2 151726Z 18017G22KT 28/21 A2995 RMK A01 T02840209  RH  064%=      5-min Rain = 0
KSE2 151727Z 20014G20KT 28/21 A2995 RMK A01 T02830208  RH  064%=      5-min Rain = 0
KSE2 151728Z 19013KT 28/21 A2994 RMK A01 T02820210  RH  065%=      5-min Rain = 0
KSE2 151729Z 17014G20KT 28/21 A2994 RMK A01 T02820212  RH  065%=      5-min Rain = 0
KSE2 151730Z 16014G19KT 28/21 A2994 RMK A01 T02840211  RH  065%=      5-min Rain = 0
KSE2 151731Z 17014G22KT 28/21 A2994 RMK A01 T02830211  RH  065%=      5-min Rain = 0
KSE2 151732Z 17011G18KT 28/21 A2994 RMK A01 T02830211  RH  065%=      5-min Rain = 0
KSE2 151733Z 18017KT 28/21 A2994 RMK A01 T02840211  RH  064%=      5-min Rain = 0
KSE2 151734Z 18014KT 28/21 A2994 RMK A01 T02840211  RH  065%=      5-min Rain = 0
KSE2 151735Z 17014KT 28/21 A2994 RMK A01 T02840212  RH  065%=      5-min Rain = 0
KSE2 151736Z 18011KT 29/21 A2994 RMK A01 T02850213  RH  065%=      5-min Rain = 0
KSE2 151737Z 15012G19KT 29/21 A2994 RMK A01 T02870214  RH  065%=      5-min Rain = 0
KSE2 151738Z 17014G21KT 29/21 A2994 RMK A01 T02880211  RH  063%=      5-min Rain = 0
KSE2 151739Z 18014G20KT 29/21 A2994 RMK A01 T02880212  RH  063%=      5-min Rain = 0
KSE2 151740Z 17016KT 29/21 A2994 RMK A01 T02860210  RH  063%=      5-min Rain = 0
KSE2 151741Z 18012KT 29/21 A2994 RMK A01 T02850210  RH  064%=      5-min Rain = 0
KSE2 151742Z 19012G17KT 29/21 A2994 RMK A01 T02850214  RH  065%=      5-min Rain = 0
KSE2 151743Z 18009KT 29/22 A2994 RMK A01 T02870215  RH  065%=      5-min Rain = 0
KSE2 151744Z 18010G16KT 29/22 A2994 RMK A01 T02890217  RH  065%=      5-min Rain = 0
KSE2 151745Z 17009G15KT 29/22 A2994 RMK A01 T02910215  RH  064%=      5-min Rain = 0
KSE2 151746Z 16012G17KT 29/22 A2994 RMK A01 T02910217  RH  064%=      5-min Rain = 0
KSE2 151747Z 17013KT 29/21 A2994 RMK A01 T02920213  RH  062%=      5-min Rain = 0
KSE2 151748Z 18012KT 29/21 A2994 RMK A01 T02910212  RH  062%=      5-min Rain = 0
KSE2 151749Z 19015KT 29/21 A2994 RMK A01 T02900211  RH  062%=      5-min Rain = 0
KSE2 151750Z 18012G20KT 29/21 A2994 RMK A01 T02890211  RH  063%=      5-min Rain = 0
KSE2 151751Z 18016G21KT 29/21 A2994 RMK A01 T02900208  RH  061%=      5-min Rain = 0
KSE2 151752Z 18015G20KT 29/21 A2994 RMK A01 T02900207  RH  061%=      5-min Rain = 0
KSE2 151753Z 17010G20KT 29/21 A2994 RMK A01 T02900208  RH  061%=      5-min Rain = 0
KSE2 151754Z 17016G23KT 29/21 A2994 RMK A01 T02900206  RH  060%=      5-min Rain = 0
KSE2 151755Z 18015G22KT 29/21 A2994 RMK A01 T02900206  RH  061%=      5-min Rain = 0
KSE2 151756Z 18015KT 29/20 A2994 RMK A01 T02900203  RH  059%=      5-min Rain = 0
KSE2 151757Z 18015G22KT 29/20 A2994 RMK A01 T02890204  RH  060%=      5-min Rain = 0
KSE2 151758Z 15013KT 29/21 A2994 RMK A01 T02890205  RH  060%=      5-min Rain = 0
KSE2 151759Z 16014G23KT 29/21 A2994 RMK A01 T02890208  RH  061%=      5-min Rain = 0
KSE2 151800Z 17016KT 29/20 A2994 RMK A01 T02900204  RH  060%=      5-min Rain = 0
KSE2 151801Z 17019KT 29/21 A2994 RMK A01 T02890206  RH  061%=      5-min Rain = 0
KSE2 151802Z 17016KT 29/21 A2994 RMK A01 T02880205  RH  061%=      5-min Rain = 0
KSE2 151803Z 17012G18KT 29/21 A2994 RMK A01 T02880207  RH  062%=      5-min Rain = 0
KSE2 151804Z 16014G21KT 29/21 A2994 RMK A01 T02890207  RH  061%=      5-min Rain = 0
KSE2 151805Z 17017G23KT 29/21 A2994 RMK A01 T02890205  RH  061%=      5-min Rain = 0
KSE2 151806Z 16014KT 29/21 A2994 RMK A01 T02880205  RH  061%=      5-min Rain = 0
KSE2 151807Z 18012G17KT 29/21 A2994 RMK A01 T02870208  RH  062%=      5-min Rain = 0
KSE2 151808Z 18016KT 29/21 A2994 RMK A01 T02890207  RH  061%=      5-min Rain = 0
KSE2 151809Z 19016G21KT 29/21 A2994 RMK A01 T02890206  RH  061%=      5-min Rain = 0
KSE2 151810Z 18011G16KT 29/21 A2994 RMK A01 T02890206  RH  061%=      5-min Rain = 0
KSE2 151811Z 18012G20KT 29/21 A2994 RMK A01 T02900209  RH  062%=      5-min Rain = 0
KSE2 151812Z 16010KT 29/21 A2994 RMK A01 T02920211  RH  062%=      5-min Rain = 0
KSE2 151813Z 18009KT 30/22 A2994 RMK A01 T02950215  RH  062%=      5-min Rain = 0
KSE2 151814Z 18011KT 30/21 A2993 RMK A01 T02970214  RH  061%=      5-min Rain = 0
KSE2 151815Z 19014G20KT 30/21 A2994 RMK A01 T02980209  RH  059%=      5-min Rain = 0
KSE2 151816Z 19012G17KT 30/21 A2993 RMK A01 T02960210  RH  060%=      5-min Rain = 0
KSE2 151817Z 18010G15KT 30/21 A2993 RMK A01 T02960210  RH  060%=      5-min Rain = 0
KSE2 151818Z 17013KT 30/21 A2993 RMK A01 T02970210  RH  060%=      5-min Rain = 0
KSE2 151819Z 17015G20KT 30/21 A2993 RMK A01 T02960209  RH  059%=      5-min Rain = 0
KSE2 151820Z 17013G19KT 30/21 A2993 RMK A01 T02950211  RH  061%=      5-min Rain = 0
KSE2 151821Z 18015KT 30/21 A2993 RMK A01 T02950210  RH  060%=      5-min Rain = 0
KSE2 151822Z 19013G22KT 30/21 A2993 RMK A01 T02950211  RH  061%=      5-min Rain = 0
KSE2 151823Z 18013G18KT 30/21 A2993 RMK A01 T02950213  RH  061%=      5-min Rain = 0
KSE2 151824Z 17014G21KT 30/21 A2993 RMK A01 T02960212  RH  061%=      5-min Rain = 0
KSE2 151825Z 17015G20KT 30/21 A2993 RMK A01 T02950210  RH  060%=      5-min Rain = 0
KSE2 151826Z 16013KT 29/21 A2993 RMK A01 T02930211  RH  061%=      5-min Rain = 0
KSE2 151827Z 17013G19KT 29/21 A2993 RMK A01 T02930209  RH  060%=      5-min Rain = 0
KSE2 151828Z 17014G20KT 30/21 A2993 RMK A01 T02950209  RH  060%=      5-min Rain = 0
KSE2 151829Z 16015KT 30/21 A2993 RMK A01 T02960209  RH  060%=      5-min Rain = 0
KSE2 151830Z 16012G20KT 30/21 A2993 RMK A01 T02960210  RH  060%=      5-min Rain = 0
KSE2 151831Z 16017KT 30/21 A2993 RMK A01 T02990209  RH  059%=      5-min Rain = 0
KSE2 151832Z 15016KT 30/21 A2993 RMK A01 T02980208  RH  058%=      5-min Rain = 0
KSE2 151833Z 16012G17KT 30/21 A2993 RMK A01 T02980208  RH  058%=      5-min Rain = 0
KSE2 151834Z 15008G13KT 30/21 A2993 RMK A01 T02980211  RH  060%=      5-min Rain = 0
KSE2 151835Z 19011G16KT 30/21 A2993 RMK A01 T03010213  RH  059%=      5-min Rain = 0
KSE2 151836Z 17015G21KT 30/21 A2993 RMK A01 T03020212  RH  059%=      5-min Rain = 0
KSE2 151837Z 16015G21KT 30/21 A2993 RMK A01 T03000209  RH  058%=      5-min Rain = 0
KSE2 151838Z 17012G18KT 30/21 A2993 RMK A01 T02990210  RH  059%=      5-min Rain = 0
KSE2 151839Z 18013G18KT 30/21 A2993 RMK A01 T02980212  RH  060%=      5-min Rain = 0
KSE2 151840Z 15017G24KT 30/21 A2993 RMK A01 T02980210  RH  059%=      5-min Rain = 0
KSE2 151841Z 16017KT 30/21 A2993 RMK A01 T02970210  RH  059%=      5-min Rain = 0
KSE2 151842Z 15016KT 30/21 A2993 RMK A01 T02970210  RH  059%=      5-min Rain = 0
KSE2 151843Z 15014G19KT 30/21 A2993 RMK A01 T02970209  RH  059%=      5-min Rain = 0
KSE2 151844Z 15015KT 30/21 A2993 RMK A01 T02960208  RH  059%=      5-min Rain = 0
KSE2 151845Z 16016G23KT 30/21 A2993 RMK A01 T02950209  RH  060%=      5-min Rain = 0
KSE2 151846Z 17012G17KT 30/21 A2993 RMK A01 T02950210  RH  060%=      5-min Rain = 0
KSE2 151847Z 18015G21KT 30/21 A2993 RMK A01 T02960211  RH  060%=      5-min Rain = 0
KSE2 151848Z 19020G25KT 30/21 A2993 RMK A01 T02970207  RH  058%=      5-min Rain = 0
KSE2 151849Z 18015G23KT 30/21 A2993 RMK A01 T02970206  RH  058%=      5-min Rain = 0
KSE2 151850Z 19018G23KT 30/21 A2993 RMK A01 T02960207  RH  059%=      5-min Rain = 0
KSE2 151851Z 19017KT 30/21 A2993 RMK A01 T02950207  RH  059%=      5-min Rain = 0
KSE2 151852Z 18017KT 30/20 A2993 RMK A01 T02950204  RH  058%=      5-min Rain = 0
KSE2 151853Z 19019G24KT 30/21 A2993 RMK A01 T02950205  RH  058%=      5-min Rain = 0
KSE2 151854Z 18016G21KT 30/20 A2993 RMK A01 T02950203  RH  058%=      5-min Rain = 0
KSE2 151855Z 19015G20KT 30/20 A2993 RMK A01 T02960204  RH  058%=      5-min Rain = 0
KSE2 151856Z 18015KT 30/20 A2993 RMK A01 T02960204  RH  058%=      5-min Rain = 0
KSE2 151857Z 18013G20KT 30/21 A2993 RMK A01 T02960205  RH  058%=      5-min Rain = 0
KSE2 151858Z 18016G21KT 30/21 A2993 RMK A01 T02960206  RH  059%=      5-min Rain = 0
KSE2 151859Z 19014G20KT 30/21 A2993 RMK A01 T02970207  RH  058%=      5-min Rain = 0
KSE2 151900Z 19017KT 30/21 A2993 RMK A01 T02970208  RH  059%=      5-min Rain = 0
KSE2 151901Z 20014KT 30/21 A2992 RMK A01 T02970210  RH  059%=      5-min Rain = 0
KSE2 151902Z 19015KT 30/21 A2993 RMK A01 T02970210  RH  059%=      5-min Rain = 0
KSE2 151903Z 19014G19KT 30/21 A2992 RMK A01 T02980210  RH  059%=      5-min Rain = 0
KSE2 151904Z 18011G16KT 30/21 A2992 RMK A01 T02980212  RH  060%=      5-min Rain = 0
KSE2 151905Z 18015G21KT 30/21 A2992 RMK A01 T03000211  RH  059%=      5-min Rain = 0
KSE2 151906Z 17018G23KT 30/21 A2992 RMK A01 T03000209  RH  058%=      5-min Rain = 0
KSE2 151907Z 17016KT 30/20 A2992 RMK A01 T02990204  RH  057%=      5-min Rain = 0
KSE2 151908Z 17015KT 30/21 A2992 RMK A01 T02970205  RH  058%=      5-min Rain = 0
KSE2 151909Z 17013G19KT 30/21 A2992 RMK A01 T02960205  RH  058%=      5-min Rain = 0
KSE2 151910Z 18014G22KT 30/21 A2992 RMK A01 T02950207  RH  059%=      5-min Rain = 0
KSE2 151911Z 17013G19KT 30/21 A2992 RMK A01 T02960207  RH  059%=      5-min Rain = 0
KSE2 151912Z 16010G16KT 30/21 A2992 RMK A01 T02970207  RH  059%=      5-min Rain = 0
KSE2 151913Z 16013KT 30/21 A2992 RMK A01 T02970209  RH  059%=      5-min Rain = 0
KSE2 151914Z 16015KT 30/21 A2992 RMK A01 T02970208  RH  059%=      5-min Rain = 0
KSE2 151915Z 17014KT 30/21 A2992 RMK A01 T02960210  RH  060%=      5-min Rain = 0
KSE2 151916Z 16015G20KT 30/21 A2992 RMK A01 T02970209  RH  059%=      5-min Rain = 0
KSE2 151917Z 15014G21KT 30/21 A2992 RMK A01 T02980207  RH  058%=      5-min Rain = 0
KSE2 151918Z 15017G23KT 30/21 A2992 RMK A01 T02980206  RH  058%=      5-min Rain = 0
KSE2 151919Z 15013G18KT 30/21 A2992 RMK A01 T02980206  RH  058%=      5-min Rain = 0
KSE2 151920Z 15011G16KT 30/21 A2992 RMK A01 T03000209  RH  058%=      5-min Rain = 0
KSE2 151921Z 16010KT 30/21 A2992 RMK A01 T03040212  RH  058%=      5-min Rain = 0
KSE2 151922Z 17012KT 31/21 A2992 RMK A01 T03060210  RH  057%=      5-min Rain = 0
KSE2 151923Z 17014KT 31/21 A2992 RMK A01 T03060209  RH  056%=      5-min Rain = 0
KSE2 151924Z 16012G18KT 30/21 A2992 RMK A01 T03030207  RH  056%=      5-min Rain = 0
KSE2 151925Z 16013G18KT 30/21 A2992 RMK A01 T03040208  RH  057%=      5-min Rain = 0
KSE2 151926Z 15016KT 30/20 A2992 RMK A01 T03040204  RH  055%=      5-min Rain = 0
KSE2 151927Z 15014KT 30/20 A2991 RMK A01 T03020204  RH  056%=      5-min Rain = 0
KSE2 151928Z 16014G21KT 30/21 A2992 RMK A01 T03000205  RH  057%=      5-min Rain = 0
KSE2 151929Z 15016G21KT 30/21 A2991 RMK A01 T02980205  RH  057%=      5-min Rain = 0
KSE2 151930Z 17017G22KT 30/21 A2992 RMK A01 T02960205  RH  058%=      5-min Rain = 0
KSE2 151931Z 17015G21KT 29/20 A2992 RMK A01 T02940203  RH  058%=      5-min Rain = 0
KSE2 151932Z 17014KT 29/20 A2991 RMK A01 T02930203  RH  058%=      5-min Rain = 0
KSE2 151933Z 18013G18KT 29/21 A2991 RMK A01 T02930207  RH  060%=      5-min Rain = 0
KSE2 151934Z 17010G15KT 30/21 A2991 RMK A01 T02960209  RH  060%=      5-min Rain = 0
KSE2 151935Z 17016G21KT 30/21 A2991 RMK A01 T02990209  RH  059%=      5-min Rain = 0
KSE2 151936Z 18014G19KT 30/21 A2991 RMK A01 T03000206  RH  057%=      5-min Rain = 0
KSE2 151937Z 18017KT 30/21 A2991 RMK A01 T03010206  RH  057%=      5-min Rain = 0
KSE2 151938Z 18013KT 30/21 A2991 RMK A01 T03020208  RH  057%=      5-min Rain = 0
KSE2 151939Z 17012KT 30/21 A2991 RMK A01 T03030210  RH  057%=      5-min Rain = 0
KSE2 151940Z 19012KT 31/21 A2991 RMK A01 T03050211  RH  057%=      5-min Rain = 0
KSE2 151941Z 18012KT 31/21 A2991 RMK A01 T03060211  RH  057%=      5-min Rain = 0
KSE2 151942Z 17015KT 31/21 A2991 RMK A01 T03060211  RH  057%=      5-min Rain = 0
KSE2 151943Z 16012G19KT 31/21 A2991 RMK A01 T03050212  RH  057%=      5-min Rain = 0
KSE2 151944Z 18013KT 30/21 A2991 RMK A01 T03040209  RH  057%=      5-min Rain = 0
KSE2 151945Z 17012KT 30/21 A2991 RMK A01 T03040212  RH  058%=      5-min Rain = 0
KSE2 151946Z 18013KT 31/21 A2991 RMK A01 T03050211  RH  057%=      5-min Rain = 0
KSE2 151947Z 19014G19KT 31/21 A2991 RMK A01 T03060210  RH  056%=      5-min Rain = 0
KSE2 151948Z 19015G21KT 31/21 A2991 RMK A01 T03060209  RH  056%=      5-min Rain = 0
KSE2 151949Z 18015G20KT 31/21 A2991 RMK A01 T03070205  RH  055%=      5-min Rain = 0
KSE2 151950Z 19014KT 31/21 A2991 RMK A01 T03070207  RH  055%=      5-min Rain = 0
KSE2 151951Z 18013G18KT 31/21 A2991 RMK A01 T03080207  RH  055%=      5-min Rain = 0
KSE2 151952Z 18013KT 31/21 A2991 RMK A01 T03080207  RH  055%=      5-min Rain = 0
KSE2 151953Z 19015G21KT 31/20 A2991 RMK A01 T03080203  RH  054%=      5-min Rain = 0
KSE2 151954Z 19016KT 31/20 A2991 RMK A01 T03080204  RH  054%=      5-min Rain = 0
KSE2 151955Z 18014G20KT 31/20 A2991 RMK A01 T03070204  RH  054%=      5-min Rain = 0
KSE2 151956Z 18013G19KT 31/20 A2991 RMK A01 T03060204  RH  054%=      5-min Rain = 0
KSE2 151957Z 18012G17KT 31/20 A2991 RMK A01 T03050204  RH  055%=      5-min Rain = 0
KSE2 151958Z 18013KT 31/21 A2991 RMK A01 T03050206  RH  056%=      5-min Rain = 0
KSE2 151959Z 18013G19KT 31/21 A2991 RMK A01 T03080205  RH  054%=      5-min Rain = 0
KSE2 152000Z 17015G24KT 31/20 A2991 RMK A01 T03100202  RH  053%=      5-min Rain = 0
KSE2 152001Z 17016G21KT 31/20 A2991 RMK A01 T03090198  RH  051%=      5-min Rain = 0
KSE2 152002Z 17013G20KT 31/20 A299 RMK A01 T03080201  RH  053%=      5-min Rain = 0
KSE2 152003Z 18014KT 31/20 A299 RMK A01 T03080200  RH  053%=      5-min Rain = 0
KSE2 152004Z 18010G18KT 31/20 A299 RMK A01 T03080202  RH  053%=      5-min Rain = 0
KSE2 152005Z 18015G20KT 31/20 A299 RMK A01 T03100202  RH  053%=      5-min Rain = 0
KSE2 152006Z 16012G19KT 31/20 A299 RMK A01 T03100203  RH  053%=      5-min Rain = 0
KSE2 152007Z 15014G20KT 31/20 A299 RMK A01 T03100203  RH  053%=      5-min Rain = 0
KSE2 152008Z 16016KT 31/20 A299 RMK A01 T03100200  RH  052%=      5-min Rain = 0
KSE2 152009Z 15015G21KT 31/20 A299 RMK A01 T03090195  RH  051%=      5-min Rain = 0
KSE2 152010Z 17015G20KT 31/20 A299 RMK A01 T03080197  RH  052%=      5-min Rain = 0
KSE2 152011Z 17012KT 31/20 A299 RMK A01 T03080202  RH  053%=      5-min Rain = 0
KSE2 152012Z 19011G19KT 31/20 A299 RMK A01 T03090202  RH  053%=      5-min Rain = 0
KSE2 152013Z 19013G18KT 31/20 A299 RMK A01 T03090199  RH  052%=      5-min Rain = 0
KSE2 152014Z 18013KT 31/20 A299 RMK A01 T03100201  RH  052%=      5-min Rain = 0
KSE2 152015Z 18015KT 31/20 A299 RMK A01 T03100203  RH  053%=      5-min Rain = 0
KSE2 152016Z 18014KT 31/20 A299 RMK A01 T03090202  RH  053%=      5-min Rain = 0
KSE2 152017Z 18013G18KT 31/20 A299 RMK A01 T03090204  RH  054%=      5-min Rain = 0
KSE2 152018Z 19015G20KT 31/20 A299 RMK A01 T03090203  RH  053%=      5-min Rain = 0
KSE2 152019Z 19013G18KT 31/20 A299 RMK A01 T03080203  RH  053%=      5-min Rain = 0
KSE2 152020Z 19015KT 31/20 A299 RMK A01 T03090203  RH  053%=      5-min Rain = 0
KSE2 152021Z 19015KT 31/20 A2989 RMK A01 T03090202  RH  053%=      5-min Rain = 0
KSE2 152022Z 19017KT 31/20 A2989 RMK A01 T03100198  RH  051%=      5-min Rain = 0
KSE2 152023Z 19017KT 31/20 A2989 RMK A01 T03100197  RH  051%=      5-min Rain = 0
KSE2 152024Z 18016G21KT 31/20 A299 RMK A01 T03100197  RH  051%=      5-min Rain = 0
KSE2 152025Z 17014KT 31/20 A2989 RMK A01 T03090197  RH  051%=      5-min Rain = 0
KSE2 152026Z 16014G19KT 31/20 A2989 RMK A01 T03090198  RH  052%=      5-min Rain = 0
KSE2 152027Z 17014G20KT 31/20 A2989 RMK A01 T03090197  RH  051%=      5-min Rain = 0
KSE2 152028Z 18016KT 31/20 A2989 RMK A01 T03090198  RH  052%=      5-min Rain = 0
KSE2 152029Z 19015G23KT 31/20 A2989 RMK A01 T03090197  RH  051%=      5-min Rain = 0
KSE2 152030Z 19014KT 31/20 A2989 RMK A01 T03090199  RH  052%=      5-min Rain = 0
KSE2 152031Z 19014G19KT 31/20 A2989 RMK A01 T03090199  RH  052%=      5-min Rain = 0
KSE2 152032Z 18012G18KT 31/20 A2989 RMK A01 T03100199  RH  052%=      5-min Rain = 0
KSE2 152033Z 19012G18KT 31/20 A2989 RMK A01 T03110202  RH  052%=      5-min Rain = 0
KSE2 152034Z 18012G17KT 31/20 A2989 RMK A01 T03130204  RH  052%=      5-min Rain = 0
KSE2 152035Z 17014G19KT 31/20 A2989 RMK A01 T03140202  RH  052%=      5-min Rain = 0
KSE2 152036Z 18013G21KT 31/20 A2989 RMK A01 T03140203  RH  052%=      5-min Rain = 0
KSE2 152037Z 18012G17KT 31/20 A2989 RMK A01 T03140203  RH  052%=      5-min Rain = 0
KSE2 152038Z 17015G20KT 31/20 A2989 RMK A01 T03140200  RH  051%=      5-min Rain = 0
KSE2 152039Z 17012KT 31/20 A2989 RMK A01 T03140201  RH  051%=      5-min Rain = 0
KSE2 152040Z 17014G19KT 31/20 A2989 RMK A01 T03140200  RH  051%=      5-min Rain = 0
KSE2 152041Z 18012G17KT 31/20 A2989 RMK A01 T03140201  RH  051%=      5-min Rain = 0
KSE2 152042Z 17009KT 31/21 A2989 RMK A01 T03140205  RH  053%=      5-min Rain = 0
KSE2 152043Z 16011KT 32/21 A2988 RMK A01 T03150206  RH  052%=      5-min Rain = 0
KSE2 152044Z 16010G16KT 32/21 A2988 RMK A01 T03150206  RH  052%=      5-min Rain = 0
KSE2 152045Z 15014KT 32/21 A2988 RMK A01 T03150205  RH  052%=      5-min Rain = 0
KSE2 152046Z 17012KT 32/20 A2988 RMK A01 T03150203  RH  052%=      5-min Rain = 0
KSE2 152047Z 19012KT 31/21 A2988 RMK A01 T03130206  RH  053%=      5-min Rain = 0
KSE2 152048Z 18011G16KT 31/21 A2988 RMK A01 T03130205  RH  052%=      5-min Rain = 0
KSE2 152049Z 18010G15KT 31/21 A2988 RMK A01 T03140206  RH  053%=      5-min Rain = 0
KSE2 152050Z 15011G16KT 32/21 A2988 RMK A01 T03150207  RH  053%=      5-min Rain = 0
KSE2 152051Z 16016KT 32/21 A2988 RMK A01 T03160205  RH  052%=      5-min Rain = 0
KSE2 152052Z 16018KT 32/20 A2988 RMK A01 T03150201  RH  051%=      5-min Rain = 0
KSE2 152053Z 16012KT 31/20 A2988 RMK A01 T03130200  RH  051%=      5-min Rain = 0
KSE2 152054Z 16015KT 31/20 A2988 RMK A01 T03120200  RH  051%=      5-min Rain = 0
KSE2 152055Z 15013G18KT 31/20 A2988 RMK A01 T03130199  RH  051%=      5-min Rain = 0
KSE2 152056Z 16012G18KT 31/20 A2988 RMK A01 T03120198  RH  051%=      5-min Rain = 0
KSE2 152057Z 17009G15KT 31/20 A2988 RMK A01 T03130200  RH  051%=      5-min Rain = 0
KSE2 152058Z 14014KT 32/20 A2988 RMK A01 T03150202  RH  051%=      5-min Rain = 0
KSE2 152059Z 15013KT 32/20 A2988 RMK A01 T03150200  RH  051%=      5-min Rain = 0
KSE2 152100Z 16012G19KT 31/20 A2988 RMK A01 T03140202  RH  051%=      5-min Rain = 0
KSE2 152101Z 16010KT 31/20 A2988 RMK A01 T03140202  RH  052%=      5-min Rain = 0
KSE2 152102Z 16011KT 31/20 A2988 RMK A01 T03140204  RH  052%=      5-min Rain = 0
KSE2 152103Z 16016G21KT 31/20 A2988 RMK A01 T03130204  RH  052%=      5-min Rain = 0
KSE2 152104Z 16013KT 31/20 A2988 RMK A01 T03120202  RH  052%=      5-min Rain = 0
KSE2 152105Z 16008KT 31/20 A2988 RMK A01 T03130203  RH  052%=      5-min Rain = 0
KSE2 152106Z 16012KT 31/20 A2988 RMK A01 T03140203  RH  052%=      5-min Rain = 0
KSE2 152107Z 17012G21KT 31/20 A2988 RMK A01 T03140201  RH  051%=      5-min Rain = 0
KSE2 152108Z 17016G21KT 32/20 A2988 RMK A01 T03150204  RH  052%=      5-min Rain = 0
KSE2 152109Z 16017KT 31/20 A2988 RMK A01 T03140201  RH  051%=      5-min Rain = 0
KSE2 152110Z 15017KT 31/20 A2988 RMK A01 T03130199  RH  051%=      5-min Rain = 0
KSE2 152111Z 15015G20KT 31/20 A2988 RMK A01 T03120197  RH  050%=      5-min Rain = 0
KSE2 152112Z 14012G17KT 31/20 A2988 RMK A01 T03110199  RH  051%=      5-min Rain = 0
KSE2 152113Z 14014KT 31/20 A2988 RMK A01 T03120196  RH  050%=      5-min Rain = 0
KSE2 152114Z 15013KT 31/20 A2988 RMK A01 T03130195  RH  050%=      5-min Rain = 0
KSE2 152115Z 14013KT 31/20 A2988 RMK A01 T03130195  RH  050%=      5-min Rain = 0
KSE2 152116Z 14012KT 31/20 A2988 RMK A01 T03110195  RH  050%=      5-min Rain = 0
KSE2 152117Z 15015KT 31/19 A2988 RMK A01 T03100194  RH  050%=      5-min Rain = 0
KSE2 152118Z 16011G16KT 31/20 A2988 RMK A01 T03100197  RH  051%=      5-min Rain = 0
KSE2 152119Z 15011G17KT 31/20 A2988 RMK A01 T03120198  RH  051%=      5-min Rain = 0
KSE2 152120Z 16013KT 31/20 A2988 RMK A01 T03140200  RH  051%=      5-min Rain = 0
KSE2 152121Z 18010G15KT 32/20 A2988 RMK A01 T03160199  RH  050%=      5-min Rain = 0
KSE2 152122Z 19013G20KT 32/20 A2988 RMK A01 T03170196  RH  049%=      5-min Rain = 0
KSE2 152123Z 18013G18KT 32/19 A2988 RMK A01 T03160194  RH  048%=      5-min Rain = 0
KSE2 152124Z 17012KT 32/20 A2988 RMK A01 T03150195  RH  049%=      5-min Rain = 0
KSE2 152125Z 16012G18KT 32/20 A2988 RMK A01 T03150198  RH  050%=      5-min Rain = 0
KSE2 152126Z 17013KT 32/20 A2988 RMK A01 T03150198  RH  050%=      5-min Rain = 0
KSE2 152127Z 18013G20KT 32/20 A2988 RMK A01 T03150200  RH  050%=      5-min Rain = 0
KSE2 152128Z 18011G16KT 32/20 A2988 RMK A01 T03170201  RH  050%=      5-min Rain = 0
KSE2 152129Z 19013KT 32/20 A2988 RMK A01 T03180200  RH  049%=      5-min Rain = 0
KSE2 152130Z 18012G19KT 32/20 A2988 RMK A01 T03180198  RH  049%=      5-min Rain = 0
KSE2 152131Z 17010G15KT 32/20 A2988 RMK A01 T03170201  RH  050%=      5-min Rain = 0
KSE2 152132Z 18008G15KT 32/20 A2988 RMK A01 T03180203  RH  051%=      5-min Rain = 0
KSE2 152133Z 17010KT 32/21 A2988 RMK A01 T03190205  RH  051%=      5-min Rain = 0
KSE2 152134Z 18013KT 32/20 A2988 RMK A01 T03180201  RH  050%=      5-min Rain = 0
KSE2 152135Z 19012KT 32/20 A2988 RMK A01 T03150199  RH  050%=      5-min Rain = 0
KSE2 152136Z 18012KT 31/20 A2988 RMK A01 T03140200  RH  051%=      5-min Rain = 0
KSE2 152137Z 17008KT 31/20 A2988 RMK A01 T03140202  RH  051%=      5-min Rain = 0
KSE2 152138Z 17008G15KT 32/21 A2988 RMK A01 T03150205  RH  052%=      5-min Rain = 0
KSE2 152139Z 16013KT 32/20 A2988 RMK A01 T03180199  RH  050%=      5-min Rain = 0
KSE2 152140Z 17009KT 32/20 A2988 RMK A01 T03170196  RH  049%=      5-min Rain = 0
KSE2 152141Z 16012KT 32/20 A2988 RMK A01 T03170196  RH  049%=      5-min Rain = 0
KSE2 152142Z 14013KT 32/20 A2988 RMK A01 T03170195  RH  048%=      5-min Rain = 0
KSE2 152143Z 16012KT 32/19 A2988 RMK A01 T03170194  RH  048%=      5-min Rain = 0
KSE2 152144Z 16013G18KT 32/20 A2988 RMK A01 T03180195  RH  048%=      5-min Rain = 0
KSE2 152145Z 16016G22KT 32/19 A2988 RMK A01 T03170191  RH  047%=      5-min Rain = 0
KSE2 152146Z 16014KT 32/19 A2988 RMK A01 T03160193  RH  048%=      5-min Rain = 0
KSE2 152147Z 17013G18KT 32/20 A2988 RMK A01 T03150195  RH  049%=      5-min Rain = 0
KSE2 152148Z 17013G18KT 32/20 A2988 RMK A01 T03150195  RH  049%=      5-min Rain = 0
KSE2 152149Z 16013G19KT 31/20 A2988 RMK A01 T03140196  RH  049%=      5-min Rain = 0
KSE2 152150Z 18011G16KT 32/20 A2988 RMK A01 T03150197  RH  050%=      5-min Rain = 0
KSE2 152151Z 17009KT 32/20 A2988 RMK A01 T03150199  RH  050%=      5-min Rain = 0
KSE2 152152Z 16009KT 32/20 A2987 RMK A01 T03160199  RH  050%=      5-min Rain = 0
KSE2 152153Z 15011G16KT 32/20 A2987 RMK A01 T03170200  RH  050%=      5-min Rain = 0
KSE2 152154Z 16012KT 32/20 A2987 RMK A01 T03180197  RH  049%=      5-min Rain = 0
KSE2 152155Z 16013KT 32/19 A2987 RMK A01 T03180193  RH  048%=      5-min Rain = 0
KSE2 152156Z 16013KT 32/19 A2987 RMK A01 T03170194  RH  048%=      5-min Rain = 0
KSE2 152157Z 16013G18KT 32/19 A2987 RMK A01 T03170193  RH  048%=      5-min Rain = 0
KSE2 152158Z 16013KT 32/19 A2987 RMK A01 T03160194  RH  048%=      5-min Rain = 0
KSE2 152159Z 16011KT 32/20 A2987 RMK A01 T03160195  RH  049%=      5-min Rain = 0
KSE2 152200Z 16010G15KT 32/20 A2987 RMK A01 T03170196  RH  049%=      5-min Rain = 0
KSE2 152201Z 18009G16KT 32/20 A2987 RMK A01 T03180200  RH  050%=      5-min Rain = 0
KSE2 152202Z 17010KT 32/20 A2987 RMK A01 T03190200  RH  049%=      5-min Rain = 0
KSE2 152203Z 17009KT 32/20 A2987 RMK A01 T03190197  RH  049%=      5-min Rain = 0
KSE2 152204Z 16009KT 32/20 A2987 RMK A01 T03190198  RH  049%=      5-min Rain = 0
KSE2 152205Z 15010G15KT 32/20 A2987 RMK A01 T03190199  RH  049%=      5-min Rain = 0
KSE2 152206Z 17014G20KT 32/20 A2987 RMK A01 T03190196  RH  048%=      5-min Rain = 0
KSE2 152207Z 16012G18KT 32/19 A2987 RMK A01 T03170193  RH  048%=      5-min Rain = 0
KSE2 152208Z 17010KT 32/20 A2987 RMK A01 T03160195  RH  049%=      5-min Rain = 0
KSE2 152209Z 15011G16KT 32/19 A2987 RMK A01 T03170194  RH  048%=      5-min Rain = 0
KSE2 152210Z 16015KT 32/19 A2987 RMK A01 T03160193  RH  048%=      5-min Rain = 0
KSE2 152211Z 17011KT 32/19 A2987 RMK A01 T03160193  RH  048%=      5-min Rain = 0
KSE2 152212Z 17010KT 32/20 A2987 RMK A01 T03160196  RH  049%=      5-min Rain = 0
KSE2 152213Z 16011KT 32/20 A2987 RMK A01 T03160195  RH  049%=      5-min Rain = 0
KSE2 152214Z 17009KT 32/20 A2987 RMK A01 T03170198  RH  049%=      5-min Rain = 0
KSE2 152215Z 17011KT 32/20 A2987 RMK A01 T03180199  RH  049%=      5-min Rain = 0
KSE2 152216Z 16011KT 32/20 A2987 RMK A01 T03190195  RH  048%=      5-min Rain = 0
KSE2 152217Z 16008KT 32/20 A2987 RMK A01 T03180197  RH  049%=      5-min Rain = 0
KSE2 152218Z 16012KT 32/20 A2987 RMK A01 T03180196  RH  048%=      5-min Rain = 0
KSE2 152219Z 17012G19KT 32/20 A2987 RMK A01 T03180196  RH  049%=      5-min Rain = 0
KSE2 152220Z 17016KT 32/20 A2987 RMK A01 T03170195  RH  048%=      5-min Rain = 0
KSE2 152221Z 17010KT 32/19 A2987 RMK A01 T03150194  RH  049%=      5-min Rain = 0
KSE2 152222Z 18009KT 32/20 A2987 RMK A01 T03150196  RH  049%=      5-min Rain = 0
KSE2 152223Z 17009KT 32/20 A2987 RMK A01 T03150198  RH  050%=      5-min Rain = 0
KSE2 152224Z 16010G18KT 32/20 A2987 RMK A01 T03160200  RH  050%=      5-min Rain = 0
KSE2 152225Z 16014G21KT 32/20 A2987 RMK A01 T03170197  RH  049%=      5-min Rain = 0
KSE2 152226Z 17013KT 32/19 A2987 RMK A01 T03170194  RH  048%=      5-min Rain = 0
KSE2 152227Z 17012G17KT 32/20 A2987 RMK A01 T03160196  RH  049%=      5-min Rain = 0
KSE2 152228Z 16010KT 32/20 A2987 RMK A01 T03160196  RH  049%=      5-min Rain = 0
KSE2 152229Z 16010G15KT 32/20 A2987 RMK A01 T03160199  RH  050%=      5-min Rain = 0
KSE2 152230Z 16011KT 32/20 A2987 RMK A01 T03170196  RH  049%=      5-min Rain = 0
KSE2 152231Z 15010KT 32/20 A2987 RMK A01 T03170195  RH  048%=      5-min Rain = 0
KSE2 152232Z 16010KT 32/19 A2987 RMK A01 T03160194  RH  048%=      5-min Rain = 0
KSE2 152233Z 17010KT 32/20 A2987 RMK A01 T03150197  RH  049%=      5-min Rain = 0
KSE2 152234Z 17013G18KT 32/19 A2987 RMK A01 T03160192  RH  048%=      5-min Rain = 0
KSE2 152235Z 17011KT 32/19 A2987 RMK A01 T03160193  RH  048%=      5-min Rain = 0
KSE2 152236Z 16010KT 32/19 A2987 RMK A01 T03150193  RH  048%=      5-min Rain = 0
KSE2 152237Z 16008G13KT 32/20 A2987 RMK A01 T03160196  RH  049%=      5-min Rain = 0
KSE2 152238Z 16011KT 32/20 A2987 RMK A01 T03170196  RH  049%=      5-min Rain = 0
KSE2 152239Z 17010KT 32/20 A2987 RMK A01 T03170196  RH  048%=      5-min Rain = 0
KSE2 152240Z 15011KT 32/20 A2987 RMK A01 T03170197  RH  049%=      5-min Rain = 0
KSE2 152241Z 15013KT 32/20 A2987 RMK A01 T03160196  RH  049%=      5-min Rain = 0
KSE2 152242Z 15015G20KT 32/20 A2987 RMK A01 T03160195  RH  049%=      5-min Rain = 0
KSE2 152243Z 16011G16KT 32/20 A2987 RMK A01 T03150197  RH  050%=      5-min Rain = 0
KSE2 152244Z 16011KT 31/20 A2987 RMK A01 T03140197  RH  050%=      5-min Rain = 0
KSE2 152245Z 15009KT 31/20 A2986 RMK A01 T03140197  RH  050%=      5-min Rain = 0
KSE2 152246Z 16015G20KT 31/20 A2986 RMK A01 T03140198  RH  050%=      5-min Rain = 0
KSE2 152247Z 16013G18KT 31/20 A2986 RMK A01 T03140196  RH  050%=      5-min Rain = 0
KSE2 152248Z 16012KT 31/20 A2986 RMK A01 T03130197  RH  050%=      5-min Rain = 0
KSE2 152249Z 16014KT 31/20 A2986 RMK A01 T03130197  RH  050%=      5-min Rain = 0
KSE2 152250Z 15013KT 31/20 A2986 RMK A01 T03130196  RH  050%=      5-min Rain = 0
KSE2 152251Z 17012KT 31/20 A2986 RMK A01 T03130198  RH  050%=      5-min Rain = 0
KSE2 152252Z 17014KT 31/20 A2986 RMK A01 T03140197  RH  050%=      5-min Rain = 0
KSE2 152253Z 17009KT 31/20 A2986 RMK A01 T03140198  RH  050%=      5-min Rain = 0
KSE2 152254Z 15012G18KT 31/20 A2986 RMK A01 T03140199  RH  050%=      5-min Rain = 0
KSE2 152255Z 15014KT 32/20 A2986 RMK A01 T03150198  RH  050%=      5-min Rain = 0
KSE2 152256Z 17009KT 32/20 A2986 RMK A01 T03150199  RH  050%=      5-min Rain = 0
KSE2 152257Z 16011KT 32/20 A2986 RMK A01 T03150200  RH  050%=      5-min Rain = 0
KSE2 152258Z 14012G20KT 32/20 A2986 RMK A01 T03160200  RH  050%=      5-min Rain = 0
KSE2 152259Z 15015G20KT 32/20 A2986 RMK A01 T03160196  RH  049%=      5-min Rain = 0
KSE2 152300Z 15012KT 32/20 A2986 RMK A01 T03150197  RH  050%=      5-min Rain = 0
KSE2 152301Z 17010KT 31/20 A2986 RMK A01 T03140198  RH  050%=      5-min Rain = 0
KSE2 152302Z 15008KT 31/20 A2986 RMK A01 T03140200  RH  051%=      5-min Rain = 0
KSE2 152303Z 15011KT 32/20 A2986 RMK A01 T03150202  RH  051%=      5-min Rain = 0
KSE2 152304Z 15012G18KT 32/20 A2986 RMK A01 T03160201  RH  050%=      5-min Rain = 0
KSE2 152305Z 16013KT 32/20 A2986 RMK A01 T03160198  RH  050%=      5-min Rain = 0
KSE2 152306Z 17013KT 31/20 A2986 RMK A01 T03140195  RH  049%=      5-min Rain = 0
KSE2 152307Z 16009KT 31/20 A2986 RMK A01 T03130196  RH  050%=      5-min Rain = 0
KSE2 152308Z 17012G18KT 31/20 A2986 RMK A01 T03130197  RH  050%=      5-min Rain = 0
KSE2 152309Z 18009G14KT 31/20 A2985 RMK A01 T03130196  RH  050%=      5-min Rain = 0
KSE2 152310Z 18012KT 31/20 A2985 RMK A01 T03120197  RH  050%=      5-min Rain = 0
KSE2 152311Z 19012KT 31/20 A2985 RMK A01 T03110195  RH  050%=      5-min Rain = 0
KSE2 152312Z 18010KT 31/20 A2985 RMK A01 T03110197  RH  051%=      5-min Rain = 0
KSE2 152313Z 17010KT 31/20 A2985 RMK A01 T03120199  RH  051%=      5-min Rain = 0
KSE2 152314Z 18013KT 31/20 A2985 RMK A01 T03130199  RH  051%=      5-min Rain = 0
KSE2 152315Z 18012KT 31/20 A2985 RMK A01 T03130200  RH  051%=      5-min Rain = 0
KSE2 152316Z 16011KT 31/20 A2985 RMK A01 T03130200  RH  051%=      5-min Rain = 0
KSE2 152317Z 15012KT 31/20 A2985 RMK A01 T03130201  RH  052%=      5-min Rain = 0
KSE2 152318Z 14014KT 31/20 A2985 RMK A01 T03130199  RH  051%=      5-min Rain = 0
KSE2 152319Z 15011KT 31/20 A2985 RMK A01 T03130200  RH  051%=      5-min Rain = 0
KSE2 152320Z 15012KT 31/20 A2985 RMK A01 T03120200  RH  051%=      5-min Rain = 0
KSE2 152321Z 16014KT 31/20 A2985 RMK A01 T03120200  RH  051%=      5-min Rain = 0
KSE2 152322Z 16015KT 31/20 A2985 RMK A01 T03120197  RH  051%=      5-min Rain = 0
KSE2 152323Z 16011G16KT 31/20 A2985 RMK A01 T03120196  RH  050%=      5-min Rain = 0
KSE2 152324Z 16012G17KT 31/19 A2985 RMK A01 T03120191  RH  048%=      5-min Rain = 0
KSE2 152325Z 17009KT 31/19 A2985 RMK A01 T03130191  RH  048%=      5-min Rain = 0
KSE2 152326Z 19012G17KT 31/19 A2985 RMK A01 T03140191  RH  048%=      5-min Rain = 0
KSE2 152327Z 19011G17KT 31/19 A2985 RMK A01 T03140188  RH  047%=      5-min Rain = 0
KSE2 152328Z 19010KT 31/19 A2985 RMK A01 T03140187  RH  047%=      5-min Rain = 0
KSE2 152329Z 18012G18KT 31/18 A2985 RMK A01 T03140184  RH  046%=      5-min Rain = 0
KSE2 152330Z 19011KT 31/18 A2985 RMK A01 T03140183  RH  046%=      5-min Rain = 0
KSE2 152331Z 19010KT 31/18 A2985 RMK A01 T03140182  RH  045%=      5-min Rain = 0
KSE2 152332Z 19011KT 31/18 A2985 RMK A01 T03140181  RH  045%=      5-min Rain = 0
KSE2 152333Z 18012KT 31/18 A2985 RMK A01 T03140180  RH  045%=      5-min Rain = 0
KSE2 152334Z 18009KT 31/18 A2985 RMK A01 T03140183  RH  046%=      5-min Rain = 0
KSE2 152335Z 17009G14KT 31/19 A2985 RMK A01 T03140186  RH  047%=      5-min Rain = 0
KSE2 152336Z 17011G16KT 31/19 A2985 RMK A01 T03140185  RH  046%=      5-min Rain = 0
KSE2 152337Z 17012KT 31/19 A2985 RMK A01 T03140186  RH  047%=      5-min Rain = 0
KSE2 152338Z 18011G17KT 31/19 A2985 RMK A01 T03130187  RH  047%=      5-min Rain = 0
KSE2 152339Z 16012G18KT 31/19 A2985 RMK A01 T03120186  RH  047%=      5-min Rain = 0
KSE2 152340Z 16011KT 31/19 A2985 RMK A01 T03120187  RH  047%=      5-min Rain = 0
KSE2 152341Z 16011KT 31/19 A2985 RMK A01 T03120187  RH  047%=      5-min Rain = 0
KSE2 152342Z 16011KT 31/19 A2985 RMK A01 T03120188  RH  048%=      5-min Rain = 0
KSE2 152343Z 18010KT 31/19 A2985 RMK A01 T03120187  RH  047%=      5-min Rain = 0
KSE2 152344Z 17008KT 31/19 A2985 RMK A01 T03120191  RH  049%=      5-min Rain = 0
KSE2 152345Z 17013KT 31/19 A2985 RMK A01 T03120191  RH  049%=      5-min Rain = 0
KSE2 152346Z 17011KT 31/19 A2985 RMK A01 T03120193  RH  049%=      5-min Rain = 0
KSE2 152347Z 17009KT 31/20 A2985 RMK A01 T03120196  RH  050%=      5-min Rain = 0
KSE2 152348Z 16010KT 31/20 A2985 RMK A01 T03120198  RH  051%=      5-min Rain = 0
KSE2 152349Z 16010KT 31/20 A2985 RMK A01 T03120199  RH  051%=      5-min Rain = 0
KSE2 152350Z 16008KT 31/20 A2985 RMK A01 T03110200  RH  052%=      5-min Rain = 0
KSE2 152351Z 16007KT 31/20 A2985 RMK A01 T03110201  RH  052%=      5-min Rain = 0
KSE2 152352Z 15007KT 31/20 A2985 RMK A01 T03110202  RH  052%=      5-min Rain = 0
KSE2 152353Z 14013G19KT 31/20 A2985 RMK A01 T03110201  RH  052%=      5-min Rain = 0
KSE2 152354Z 15013G21KT 31/20 A2985 RMK A01 T03110199  RH  051%=      5-min Rain = 0
KSE2 152355Z 15015G20KT 31/20 A2985 RMK A01 T03100198  RH  051%=      5-min Rain = 0
KSE2 152356Z 16013KT 31/20 A2985 RMK A01 T03090197  RH  051%=      5-min Rain = 0
KSE2 152357Z 15012G18KT 31/20 A2985 RMK A01 T03090198  RH  052%=      5-min Rain = 0
KSE2 152358Z 16014G19KT 31/20 A2985 RMK A01 T03090196  RH  051%=      5-min Rain = 0
KSE2 152359Z 16015G20KT 31/19 A2985 RMK A01 T03080194  RH  051%=      5-min Rain = 0
KSE2 160000Z 16011KT 31/20 A2985 RMK A01 T03080195  RH  051%=      5-min Rain = 0
KSE2 160001Z 16009G14KT 31/20 A2985 RMK A01 T03080197  RH  052%=      5-min Rain = 0
KSE2 160002Z 15008G13KT 31/20 A2985 RMK A01 T03080197  RH  052%=      5-min Rain = 0
KSE2 160003Z 16010G16KT 31/20 A2985 RMK A01 T03080197  RH  052%=      5-min Rain = 0
KSE2 160004Z 16013KT 31/20 A2985 RMK A01 T03070195  RH  051%=      5-min Rain = 0
KSE2 160005Z 15010KT 31/20 A2985 RMK A01 T03070195  RH  051%=      5-min Rain = 0
KSE2 160006Z 15012KT 31/20 A2985 RMK A01 T03080196  RH  051%=      5-min Rain = 0
KSE2 160007Z 15012KT 31/20 A2985 RMK A01 T03070195  RH  051%=      5-min Rain = 0
KSE2 160008Z 15013G18KT 31/20 A2985 RMK A01 T03070195  RH  051%=      5-min Rain = 0
KSE2 160009Z 14012G17KT 31/19 A2985 RMK A01 T03070194  RH  051%=      5-min Rain = 0
KSE2 160010Z 15012KT 31/20 A2985 RMK A01 T03070195  RH  051%=      5-min Rain = 0
KSE2 160011Z 15012KT 31/19 A2985 RMK A01 T03070194  RH  051%=      5-min Rain = 0
KSE2 160012Z 15012KT 31/19 A2985 RMK A01 T03060193  RH  051%=      5-min Rain = 0
KSE2 160013Z 15012KT 31/19 A2985 RMK A01 T03060192  RH  051%=      5-min Rain = 0
KSE2 160014Z 15010KT 31/19 A2985 RMK A01 T03060193  RH  051%=      5-min Rain = 0
KSE2 160015Z 16012KT 31/19 A2985 RMK A01 T03060192  RH  051%=      5-min Rain = 0
KSE2 160016Z 15009KT 31/19 A2985 RMK A01 T03060193  RH  051%=      5-min Rain = 0
KSE2 160017Z 15011G17KT 31/19 A2985 RMK A01 T03060191  RH  050%=      5-min Rain = 0
KSE2 160018Z 15012KT 31/19 A2985 RMK A01 T03060190  RH  050%=      5-min Rain = 0
KSE2 160019Z 15010G15KT 31/19 A2985 RMK A01 T03050189  RH  050%=      5-min Rain = 0
KSE2 160020Z 15013KT 31/19 A2985 RMK A01 T03050189  RH  050%=      5-min Rain = 0
KSE2 160021Z 16012KT 31/19 A2985 RMK A01 T03050188  RH  049%=      5-min Rain = 0
KSE2 160022Z 16013KT 31/19 A2985 RMK A01 T03050187  RH  049%=      5-min Rain = 0
KSE2 160023Z 15013KT 31/19 A2985 RMK A01 T03050186  RH  049%=      5-min Rain = 0
KSE2 160024Z 15013KT 31/19 A2985 RMK A01 T03050185  RH  049%=      5-min Rain = 0
KSE2 160025Z 15012KT 31/19 A2985 RMK A01 T03050185  RH  049%=      5-min Rain = 0
KSE2 160026Z 15010KT 30/19 A2985 RMK A01 T03040186  RH  049%=      5-min Rain = 0
KSE2 160027Z 15011KT 30/19 A2985 RMK A01 T03040186  RH  049%=      5-min Rain = 0
KSE2 160028Z 15009KT 30/19 A2985 RMK A01 T03040187  RH  050%=      5-min Rain = 0
KSE2 160029Z 15011KT 30/19 A2985 RMK A01 T03040187  RH  050%=      5-min Rain = 0
KSE2 160030Z 16007KT 30/19 A2986 RMK A01 T03030187  RH  050%=      5-min Rain = 0
KSE2 160031Z 16008KT 30/19 A2986 RMK A01 T03030189  RH  050%=      5-min Rain = 0
KSE2 160032Z 17010KT 30/19 A2986 RMK A01 T03030188  RH  050%=      5-min Rain = 0
KSE2 160033Z 15010KT 30/19 A2986 RMK A01 T03030187  RH  050%=      5-min Rain = 0
KSE2 160034Z 15012KT 30/19 A2986 RMK A01 T03030186  RH  050%=      5-min Rain = 0
KSE2 160035Z 16010KT 30/19 A2986 RMK A01 T03020186  RH  050%=      5-min Rain = 0
KSE2 160036Z 15011G16KT 30/19 A2986 RMK A01 T03030186  RH  050%=      5-min Rain = 0
KSE2 160037Z 15011KT 30/19 A2986 RMK A01 T03020185  RH  049%=      5-min Rain = 0
KSE2 160038Z 16013KT 30/19 A2986 RMK A01 T03020185  RH  049%=      5-min Rain = 0
KSE2 160039Z 16011KT 30/19 A2986 RMK A01 T03010186  RH  050%=      5-min Rain = 0
KSE2 160040Z 16011KT 30/19 A2986 RMK A01 T03010185  RH  050%=      5-min Rain = 0
KSE2 160041Z 16011KT 30/19 A2986 RMK A01 T03000185  RH  050%=      5-min Rain = 0
KSE2 160042Z 16010KT 30/19 A2986 RMK A01 T03000185  RH  050%=      5-min Rain = 0
KSE2 160043Z 16009KT 30/19 A2986 RMK A01 T02990186  RH  051%=      5-min Rain = 0
KSE2 160044Z 16007KT 30/19 A2986 RMK A01 T02980187  RH  051%=      5-min Rain = 0
KSE2 160045Z 15007KT 30/19 A2986 RMK A01 T02970188  RH  052%=      5-min Rain = 0
KSE2 160046Z 16008KT 30/19 A2986 RMK A01 T02960188  RH  052%=      5-min Rain = 0
KSE2 160047Z 16010KT 30/19 A2986 RMK A01 T02950188  RH  053%=      5-min Rain = 0
KSE2 160048Z 16010KT 29/19 A2986 RMK A01 T02940186  RH  052%=      5-min Rain = 0
KSE2 160049Z 16010G15KT 29/19 A2986 RMK A01 T02940186  RH  052%=      5-min Rain = 0
KSE2 160050Z 15013KT 30/19 A2986 RMK A01 T02950185  RH  052%=      5-min Rain = 0
KSE2 160051Z 15012KT 30/18 A2986 RMK A01 T02950184  RH  051%=      5-min Rain = 0
KSE2 160052Z 16009KT 30/19 A2986 RMK A01 T02950185  RH  051%=      5-min Rain = 0
KSE2 160053Z 16010KT 30/19 A2986 RMK A01 T02950186  RH  052%=      5-min Rain = 0
KSE2 160054Z 16013KT 29/18 A2986 RMK A01 T02940184  RH  052%=      5-min Rain = 0
KSE2 160055Z 16009KT 29/18 A2986 RMK A01 T02940184  RH  052%=      5-min Rain = 0
KSE2 160056Z 15009KT 29/19 A2986 RMK A01 T02940185  RH  052%=      5-min Rain = 0
KSE2 160057Z 16010G15KT 29/19 A2986 RMK A01 T02930185  RH  052%=      5-min Rain = 0
KSE2 160058Z 15012KT 29/18 A2986 RMK A01 T02930184  RH  052%=      5-min Rain = 0
KSE2 160059Z 15009KT 29/19 A2986 RMK A01 T02930185  RH  052%=      5-min Rain = 0
KSE2 160100Z 15009KT 29/19 A2986 RMK A01 T02930185  RH  052%=      5-min Rain = 0
KSE2 160101Z 16009KT 29/19 A2986 RMK A01 T02920185  RH  052%=      5-min Rain = 0
KSE2 160102Z 15009KT 29/19 A2986 RMK A01 T02920185  RH  053%=      5-min Rain = 0
KSE2 160103Z 15011KT 29/19 A2986 RMK A01 T02910186  RH  053%=      5-min Rain = 0
KSE2 160104Z 15009KT 29/19 A2986 RMK A01 T02910185  RH  053%=      5-min Rain = 0
KSE2 160105Z 15010KT 29/19 A2986 RMK A01 T02910185  RH  053%=      5-min Rain = 0
KSE2 160106Z 15009KT 29/19 A2986 RMK A01 T02910186  RH  053%=      5-min Rain = 0
KSE2 160107Z 15009KT 29/19 A2986 RMK A01 T02910186  RH  053%=      5-min Rain = 0
KSE2 160108Z 16010KT 29/19 A2986 RMK A01 T02900185  RH  053%=      5-min Rain = 0
KSE2 160109Z 15008KT 29/19 A2986 RMK A01 T02900185  RH  053%=      5-min Rain = 0
KSE2 160110Z 16009KT 29/19 A2986 RMK A01 T02900186  RH  053%=      5-min Rain = 0
KSE2 160111Z 15009KT 29/19 A2986 RMK A01 T02890186  RH  054%=      5-min Rain = 0
KSE2 160112Z 15008KT 29/19 A2986 RMK A01 T02890186  RH  054%=      5-min Rain = 0
KSE2 160113Z 15008KT 29/19 A2986 RMK A01 T02890186  RH  054%=      5-min Rain = 0
KSE2 160114Z 16008KT 29/19 A2986 RMK A01 T02880186  RH  054%=      5-min Rain = 0
KSE2 160115Z 15010KT 29/19 A2986 RMK A01 T02880185  RH  054%=      5-min Rain = 0
KSE2 160116Z 16007KT 29/19 A2986 RMK A01 T02880185  RH  054%=      5-min Rain = 0
KSE2 160117Z 16008KT 29/19 A2986 RMK A01 T02880185  RH  054%=      5-min Rain = 0
KSE2 160118Z 16009KT 29/19 A2986 RMK A01 T02880185  RH  054%=      5-min Rain = 0
KSE2 160119Z 16009KT 29/18 A2986 RMK A01 T02880184  RH  054%=      5-min Rain = 0
KSE2 160120Z 16008G13KT 29/18 A2986 RMK A01 T02870184  RH  054%=      5-min Rain = 0
KSE2 160121Z 16008KT 29/19 A2986 RMK A01 T02880185  RH  054%=      5-min Rain = 0
KSE2 160122Z 16008KT 29/19 A2986 RMK A01 T02870185  RH  054%=      5-min Rain = 0
KSE2 160123Z 16009KT 29/19 A2986 RMK A01 T02870185  RH  054%=      5-min Rain = 0
KSE2 160124Z 16008G13KT 29/19 A2986 RMK A01 T02870185  RH  054%=      5-min Rain = 0
KSE2 160125Z 16009KT 29/18 A2986 RMK A01 T02870184  RH  054%=      5-min Rain = 0
KSE2 160126Z 16008KT 29/19 A2986 RMK A01 T02870185  RH  054%=      5-min Rain = 0
KSE2 160127Z 16008KT 29/19 A2986 RMK A01 T02860185  RH  054%=      5-min Rain = 0
KSE2 160128Z 16010KT 29/18 A2986 RMK A01 T02860184  RH  054%=      5-min Rain = 0
KSE2 160129Z 15007KT 29/18 A2986 RMK A01 T02860183  RH  054%=      5-min Rain = 0
KSE2 160130Z 16006KT 29/18 A2986 RMK A01 T02860184  RH  054%=      5-min Rain = 0
KSE2 160131Z 15009KT 29/18 A2986 RMK A01 T02850184  RH  054%=      5-min Rain = 0
KSE2 160132Z 16007KT 29/18 A2986 RMK A01 T02850184  RH  054%=      5-min Rain = 0
KSE2 160133Z 15008KT 28/18 A2986 RMK A01 T02840183  RH  054%=      5-min Rain = 0
KSE2 160134Z 16007KT 28/18 A2986 RMK A01 T02840183  RH  054%=      5-min Rain = 0
KSE2 160135Z 16007KT 28/18 A2986 RMK A01 T02840183  RH  054%=      5-min Rain = 0
KSE2 160136Z 15006KT 28/18 A2986 RMK A01 T02830183  RH  055%=      5-min Rain = 0
KSE2 160137Z 16007KT 28/18 A2986 RMK A01 T02830183  RH  055%=      5-min Rain = 0
KSE2 160138Z 15007KT 28/18 A2986 RMK A01 T02830184  RH  055%=      5-min Rain = 0
KSE2 160139Z 15007KT 28/18 A2986 RMK A01 T02820184  RH  055%=      5-min Rain = 0
KSE2 160140Z 15007KT 28/18 A2986 RMK A01 T02820184  RH  055%=      5-min Rain = 0
KSE2 160141Z 15007KT 28/18 A2986 RMK A01 T02810184  RH  056%=      5-min Rain = 0
KSE2 160142Z 15007KT 28/18 A2986 RMK A01 T02810184  RH  056%=      5-min Rain = 0
KSE2 160143Z 15007KT 28/18 A2986 RMK A01 T02800184  RH  056%=      5-min Rain = 0
KSE2 160144Z 15006KT 28/18 A2986 RMK A01 T02800184  RH  056%=      5-min Rain = 0
KSE2 160145Z 15007KT 28/18 A2986 RMK A01 T02790183  RH  056%=      5-min Rain = 0
KSE2 160146Z 15007KT 28/18 A2986 RMK A01 T02790184  RH  056%=      5-min Rain = 0
KSE2 160147Z 16007KT 28/18 A2986 RMK A01 T02790184  RH  056%=      5-min Rain = 0
KSE2 160148Z 15007KT 28/18 A2986 RMK A01 T02790184  RH  056%=      5-min Rain = 0
KSE2 160149Z 15007KT 28/18 A2986 RMK A01 T02780184  RH  056%=      5-min Rain = 0
KSE2 160150Z 15006KT 28/18 A2986 RMK A01 T02780184  RH  057%=      5-min Rain = 0
KSE2 160151Z 15008KT 28/18 A2986 RMK A01 T02780184  RH  057%=      5-min Rain = 0
KSE2 160152Z 15007KT 28/18 A2986 RMK A01 T02770183  RH  056%=      5-min Rain = 0
KSE2 160153Z 15008KT 28/18 A2986 RMK A01 T02770184  RH  057%=      5-min Rain = 0
KSE2 160154Z 15008KT 28/18 A2986 RMK A01 T02770184  RH  057%=      5-min Rain = 0
KSE2 160155Z 15006KT 28/19 A2986 RMK A01 T02770185  RH  057%=      5-min Rain = 0
KSE2 160156Z 15007KT 28/19 A2986 RMK A01 T02760185  RH  057%=      5-min Rain = 0
KSE2 160157Z 15008KT 28/18 A2987 RMK A01 T02760184  RH  057%=      5-min Rain = 0
KSE2 160158Z 15007KT 28/18 A2987 RMK A01 T02760184  RH  057%=      5-min Rain = 0
KSE2 160159Z 15008KT 28/18 A2987 RMK A01 T02760184  RH  057%=      5-min Rain = 0
KSE2 160200Z 15008KT 28/18 A2987 RMK A01 T02760183  RH  057%=      5-min Rain = 0
KSE2 160201Z 15007KT 28/18 A2987 RMK A01 T02760184  RH  057%=      5-min Rain = 0
KSE2 160202Z 15006KT 28/18 A2987 RMK A01 T02770184  RH  057%=      5-min Rain = 0
KSE2 160203Z 15007KT 28/18 A2987 RMK A01 T02760184  RH  057%=      5-min Rain = 0
KSE2 160204Z 15007KT 28/18 A2987 RMK A01 T02760184  RH  057%=      5-min Rain = 0
KSE2 160205Z 15008KT 28/19 A2987 RMK A01 T02760185  RH  057%=      5-min Rain = 0
KSE2 160206Z 15008KT 28/18 A2987 RMK A01 T02760184  RH  057%=      5-min Rain = 0
KSE2 160207Z 15008KT 28/18 A2987 RMK A01 T02760184  RH  057%=      5-min Rain = 0
KSE2 160208Z 15008KT 28/19 A2987 RMK A01 T02760185  RH  057%=      5-min Rain = 0
KSE2 160209Z 15008KT 28/18 A2987 RMK A01 T02760184  RH  057%=      5-min Rain = 0
KSE2 160210Z 15007KT 28/19 A2987 RMK A01 T02760185  RH  058%=      5-min Rain = 0
KSE2 160211Z 16007KT 28/19 A2987 RMK A01 T02750185  RH  058%=      5-min Rain = 0
KSE2 160212Z 15007KT 28/18 A2987 RMK A01 T02750184  RH  058%=      5-min Rain = 0
KSE2 160213Z 15007KT 28/19 A2987 RMK A01 T02750185  RH  058%=      5-min Rain = 0
KSE2 160214Z 15007KT 27/19 A2987 RMK A01 T02740185  RH  058%=      5-min Rain = 0
KSE2 160215Z 15007KT 27/19 A2987 RMK A01 T02740185  RH  058%=      5-min Rain = 0
KSE2 160216Z 15006KT 27/19 A2987 RMK A01 T02730185  RH  058%=      5-min Rain = 0
KSE2 160217Z 15008KT 27/19 A2987 RMK A01 T02740185  RH  059%=      5-min Rain = 0
KSE2 160218Z 15007KT 27/19 A2987 RMK A01 T02730185  RH  059%=      5-min Rain = 0
KSE2 160219Z 15009KT 27/19 A2987 RMK A01 T02730185  RH  058%=      5-min Rain = 0
KSE2 160220Z 15008KT 27/19 A2987 RMK A01 T02740185  RH  058%=      5-min Rain = 0
KSE2 160221Z 15008KT 27/19 A2986 RMK A01 T02730185  RH  058%=      5-min Rain = 0
KSE2 160222Z 15008KT 27/19 A2986 RMK A01 T02730185  RH  059%=      5-min Rain = 0
KSE2 160223Z 15007KT 27/19 A2986 RMK A01 T02730186  RH  059%=      5-min Rain = 0
KSE2 160224Z 15007KT 27/19 A2986 RMK A01 T02720186  RH  059%=      5-min Rain = 0
KSE2 160225Z 15008KT 27/19 A2986 RMK A01 T02720185  RH  059%=      5-min Rain = 0
KSE2 160226Z 15006KT 27/19 A2987 RMK A01 T02720186  RH  059%=      5-min Rain = 0
KSE2 160227Z 15006KT 27/19 A2987 RMK A01 T02720185  RH  059%=      5-min Rain = 0
KSE2 160228Z 14008KT 27/19 A2987 RMK A01 T02720186  RH  059%=      5-min Rain = 0
KSE2 160229Z 15007KT 27/19 A2987 RMK A01 T02710185  RH  059%=      5-min Rain = 0
KSE2 160230Z 15007KT 27/19 A2987 RMK A01 T02710186  RH  060%=      5-min Rain = 0
KSE2 160231Z 15008KT 27/19 A2987 RMK A01 T02710185  RH  060%=      5-min Rain = 0
KSE2 160232Z 15006KT 27/19 A2987 RMK A01 T02700186  RH  060%=      5-min Rain = 0
KSE2 160233Z 15006KT 27/19 A2987 RMK A01 T02700186  RH  060%=      5-min Rain = 0
KSE2 160234Z 15006KT 27/19 A2987 RMK A01 T02700186  RH  060%=      5-min Rain = 0
KSE2 160235Z 15009KT 27/19 A2986 RMK A01 T02700186  RH  060%=      5-min Rain = 0
KSE2 160236Z 15007KT 27/19 A2986 RMK A01 T02700186  RH  060%=      5-min Rain = 0
KSE2 160237Z 15007KT 27/19 A2986 RMK A01 T02700185  RH  060%=      5-min Rain = 0
KSE2 160238Z 15007KT 27/19 A2986 RMK A01 T02700186  RH  060%=      5-min Rain = 0
KSE2 160239Z 15007KT 27/19 A2986 RMK A01 T02700186  RH  060%=      5-min Rain = 0
KSE2 160240Z 15007KT 27/19 A2986 RMK A01 T02700186  RH  060%=      5-min Rain = 0
KSE2 160241Z 15008KT 27/19 A2986 RMK A01 T02690186  RH  060%=      5-min Rain = 0
KSE2 160242Z 15008KT 27/19 A2986 RMK A01 T02690185  RH  060%=      5-min Rain = 0
KSE2 160243Z 15007KT 27/19 A2987 RMK A01 T02700186  RH  060%=      5-min Rain = 0
KSE2 160244Z 15006KT 27/19 A2987 RMK A01 T02700186  RH  060%=      5-min Rain = 0
KSE2 160245Z 16009KT 27/19 A2987 RMK A01 T02690186  RH  060%=      5-min Rain = 0
KSE2 160246Z 16007KT 27/19 A2987 RMK A01 T02690186  RH  060%=      5-min Rain = 0
KSE2 160247Z 16007KT 27/19 A2987 RMK A01 T02700185  RH  060%=      5-min Rain = 0
KSE2 160248Z 15007KT 27/19 A2987 RMK A01 T02700185  RH  060%=      5-min Rain = 0
KSE2 160249Z 15007KT 27/19 A2987 RMK A01 T02700185  RH  060%=      5-min Rain = 0
KSE2 160250Z 16007KT 27/19 A2987 RMK A01 T02700186  RH  060%=      5-min Rain = 0
KSE2 160251Z 15007KT 27/19 A2987 RMK A01 T02700186  RH  060%=      5-min Rain = 0
KSE2 160252Z 15008KT 27/19 A2987 RMK A01 T02700186  RH  060%=      5-min Rain = 0
KSE2 160253Z 16007KT 27/19 A2987 RMK A01 T02700185  RH  060%=      5-min Rain = 0
KSE2 160254Z 16007KT 27/19 A2988 RMK A01 T02710185  RH  059%=      5-min Rain = 0
KSE2 160255Z 16007KT 27/19 A2988 RMK A01 T02710185  RH  059%=      5-min Rain = 0
KSE2 160256Z 16006KT 27/19 A2988 RMK A01 T02710185  RH  060%=      5-min Rain = 0
KSE2 160257Z 16005KT 27/19 A2988 RMK A01 T02710186  RH  060%=      5-min Rain = 0
KSE2 160258Z 16007KT 27/19 A2988 RMK A01 T02710185  RH  060%=      5-min Rain = 0
KSE2 160259Z 17007KT 27/19 A2989 RMK A01 T02710185  RH  059%=      5-min Rain = 0
KSE2 160300Z 17006KT 27/19 A2989 RMK A01 T02710185  RH  059%=      5-min Rain = 0
KSE2 160301Z 16005KT 27/19 A2989 RMK A01 T02710185  RH  059%=      5-min Rain = 0
KSE2 160302Z 16005KT 27/19 A2989 RMK A01 T02710185  RH  059%=      5-min Rain = 0
KSE2 160303Z 17005KT 27/19 A299 RMK A01 T02710185  RH  059%=      5-min Rain = 0
KSE2 160304Z 17005KT 27/19 A299 RMK A01 T02710185  RH  059%=      5-min Rain = 0
KSE2 160305Z 18005KT 27/19 A299 RMK A01 T02710185  RH  059%=      5-min Rain = 0
KSE2 160306Z 17006KT 27/19 A299 RMK A01 T02710185  RH  059%=      5-min Rain = 0
KSE2 160307Z 17004KT 27/19 A2991 RMK A01 T02710185  RH  059%=      5-min Rain = 0
KSE2 160308Z 20004KT 27/19 A2991 RMK A01 T02710185  RH  059%=      5-min Rain = 0
KSE2 160309Z 19003KT 27/19 A2991 RMK A01 T02710185  RH  059%=      5-min Rain = 0
KSE2 160310Z 20002KT 27/18 A2992 RMK A01 T02710184  RH  059%=      5-min Rain = 0
KSE2 160311Z 20002KT 27/19 A2992 RMK A01 T02710185  RH  059%=      5-min Rain = 0
KSE2 160312Z 22003KT 27/19 A2992 RMK A01 T02710185  RH  059%=      5-min Rain = 0
KSE2 160313Z 23003KT 27/18 A2992 RMK A01 T02710184  RH  059%=      5-min Rain = 0
KSE2 160314Z 24002KT 27/19 A2993 RMK A01 T02710185  RH  059%=      5-min Rain = 0
KSE2 160315Z 25001KT 27/19 A2993 RMK A01 T02710186  RH  060%=      5-min Rain = 0
KSE2 160316Z 26002KT 27/19 A2993 RMK A01 T02700186  RH  060%=      5-min Rain = 0
KSE2 160317Z 25002KT 27/19 A2993 RMK A01 T02700186  RH  060%=      5-min Rain = 0
KSE2 160318Z 22002KT 27/19 A2993 RMK A01 T02700186  RH  060%=      5-min Rain = 0
KSE2 160319Z 22002KT 27/19 A2993 RMK A01 T02690186  RH  060%=      5-min Rain = 0
KSE2 160320Z 21001KT 27/19 A2993 RMK A01 T02690186  RH  060%=      5-min Rain = 0
KSE2 160321Z 20003KT 27/19 A2993 RMK A01 T02690185  RH  060%=      5-min Rain = 0
KSE2 160322Z 21004KT 27/19 A2993 RMK A01 T02690185  RH  060%=      5-min Rain = 0
KSE2 160323Z 18004KT 27/18 A2993 RMK A01 T02700184  RH  059%=      5-min Rain = 0
KSE2 160324Z 19004KT 27/19 A2993 RMK A01 T02710185  RH  059%=      5-min Rain = 0
KSE2 160325Z 19004KT 27/18 A2992 RMK A01 T02720184  RH  059%=      5-min Rain = 0
KSE2 160326Z 18004KT 27/18 A2992 RMK A01 T02720184  RH  059%=      5-min Rain = 0
KSE2 160327Z 18003KT 27/18 A2992 RMK A01 T02720184  RH  059%=      5-min Rain = 0
KSE2 160328Z 20002KT 27/18 A2992 RMK A01 T02720184  RH  059%=      5-min Rain = 0
KSE2 160329Z 17001KT 27/18 A2992 RMK A01 T02720184  RH  059%=      5-min Rain = 0
KSE2 160330Z 17002KT 27/19 A2992 RMK A01 T02720185  RH  059%=      5-min Rain = 0
KSE2 160331Z 19001KT 27/18 A2992 RMK A01 T02710184  RH  059%=      5-min Rain = 0
KSE2 160332Z 21001KT 27/19 A2992 RMK A01 T02710185  RH  059%=      5-min Rain = 0
KSE2 160333Z 18001KT 27/19 A2992 RMK A01 T02700185  RH  059%=      5-min Rain = 0
KSE2 160334Z 21002KT 27/18 A2992 RMK A01 T02700184  RH  059%=      5-min Rain = 0
KSE2 160335Z 21002KT 27/19 A2992 RMK A01 T02700185  RH  060%=      5-min Rain = 0
KSE2 160336Z 23003KT 27/19 A2993 RMK A01 T02690185  RH  060%=      5-min Rain = 0
KSE2 160337Z 20003KT 27/19 A2993 RMK A01 T02680186  RH  061%=      5-min Rain = 0
KSE2 160338Z 20002KT 27/19 A2993 RMK A01 T02670187  RH  061%=      5-min Rain = 0
KSE2 160339Z 20003KT 27/19 A2993 RMK A01 T02660185  RH  061%=      5-min Rain = 0
KSE2 160340Z 20003KT 27/19 A2992 RMK A01 T02660185  RH  061%=      5-min Rain = 0
KSE2 160341Z 21003KT 27/19 A2992 RMK A01 T02660185  RH  061%=      5-min Rain = 0
KSE2 160342Z 20004KT 27/19 A2992 RMK A01 T02660185  RH  061%=      5-min Rain = 0
KSE2 160343Z 19005KT 27/19 A2992 RMK A01 T02670186  RH  061%=      5-min Rain = 0
KSE2 160344Z 18004KT 27/19 A2992 RMK A01 T02660186  RH  061%=      5-min Rain = 0
KSE2 160345Z 18004KT 27/19 A2993 RMK A01 T02670187  RH  061%=      5-min Rain = 0
KSE2 160346Z 18004KT 27/19 A2993 RMK A01 T02660186  RH  061%=      5-min Rain = 0
KSE2 160347Z 18006KT 27/19 A2993 RMK A01 T02660186  RH  061%=      5-min Rain = 0
KSE2 160348Z 19006KT 27/19 A2993 RMK A01 T02660186  RH  061%=      5-min Rain = 0
KSE2 160349Z 17006KT 27/19 A2993 RMK A01 T02660187  RH  062%=      5-min Rain = 0
KSE2 160350Z 17005KT 27/19 A2993 RMK A01 T02660187  RH  062%=      5-min Rain = 0
KSE2 160351Z 15004KT 27/19 A2993 RMK A01 T02660187  RH  062%=      5-min Rain = 0
KSE2 160352Z 16002KT 27/19 A2993 RMK A01 T02660187  RH  062%=      5-min Rain = 0
KSE2 160353Z 16003KT 27/19 A2993 RMK A01 T02660187  RH  062%=      5-min Rain = 0
KSE2 160354Z 16004KT 27/19 A2993 RMK A01 T02660187  RH  062%=      5-min Rain = 0
KSE2 160355Z 17004KT 27/19 A2993 RMK A01 T02650187  RH  062%=      5-min Rain = 0
KSE2 160356Z 17005KT 27/19 A2993 RMK A01 T02650187  RH  062%=      5-min Rain = 0
KSE2 160357Z 16005KT 27/19 A2993 RMK A01 T02650188  RH  062%=      5-min Rain = 0
KSE2 160358Z 16005KT 27/19 A2993 RMK A01 T02650188  RH  063%=      5-min Rain = 0
KSE2 160359Z 16004KT 27/19 A2993 RMK A01 T02650188  RH  063%=      5-min Rain = 0
KSE2 160400Z 16005KT 26/19 A2993 RMK A01 T02640188  RH  063%=      5-min Rain = 0
KSE2 160401Z 16005KT 26/19 A2993 RMK A01 T02640188  RH  063%=      5-min Rain = 0
KSE2 160402Z 16005KT 26/19 A2993 RMK A01 T02640189  RH  063%=      5-min Rain = 0
KSE2 160403Z 16005KT 26/19 A2993 RMK A01 T02630189  RH  063%=      5-min Rain = 0
KSE2 160404Z 16006KT 26/19 A2993 RMK A01 T02630189  RH  064%=      5-min Rain = 0
KSE2 160405Z 16006KT 26/19 A2993 RMK A01 T02620189  RH  064%=      5-min Rain = 0
KSE2 160406Z 16006KT 26/19 A2993 RMK A01 T02620189  RH  064%=      5-min Rain = 0
KSE2 160407Z 16006KT 26/19 A2993 RMK A01 T02610189  RH  064%=      5-min Rain = 0
KSE2 160408Z 16006KT 26/19 A2993 RMK A01 T02610189  RH  065%=      5-min Rain = 0
KSE2 160409Z 16006KT 26/19 A2992 RMK A01 T02610190  RH  065%=      5-min Rain = 0
KSE2 160410Z 15006KT 26/19 A2992 RMK A01 T02610190  RH  065%=      5-min Rain = 0
KSE2 160411Z 15006KT 26/19 A2992 RMK A01 T02610190  RH  065%=      5-min Rain = 0
KSE2 160412Z 16007KT 26/19 A2992 RMK A01 T02610190  RH  065%=      5-min Rain = 0
KSE2 160413Z 16006KT 26/19 A2992 RMK A01 T02600190  RH  065%=      5-min Rain = 0
KSE2 160414Z 17006KT 26/19 A2993 RMK A01 T02610191  RH  065%=      5-min Rain = 0
KSE2 160415Z 18005KT 26/19 A2993 RMK A01 T02600191  RH  065%=      5-min Rain = 0
KSE2 160416Z 17004KT 26/19 A2993 RMK A01 T02610192  RH  066%=      5-min Rain = 0
KSE2 160417Z 17004KT 26/19 A2993 RMK A01 T02600192  RH  066%=      5-min Rain = 0
KSE2 160418Z 19004KT 26/19 A2993 RMK A01 T02600192  RH  066%=      5-min Rain = 0
KSE2 160419Z 19004KT 26/19 A2993 RMK A01 T02600192  RH  066%=      5-min Rain = 0
KSE2 160420Z 21003KT 26/19 A2994 RMK A01 T02600193  RH  066%=      5-min Rain = 0
KSE2 160421Z 25003KT 26/19 A2994 RMK A01 T02600193  RH  066%=      5-min Rain = 0
KSE2 160422Z 29004KT 26/19 A2994 RMK A01 T02600193  RH  066%=      5-min Rain = 0
KSE2 160423Z 30005KT 26/19 A2995 RMK A01 T02590193  RH  067%=      5-min Rain = 0
KSE2 160424Z 30005KT 26/19 A2995 RMK A01 T02570193  RH  067%=      5-min Rain = 0
KSE2 160425Z 31006KT 26/19 A2995 RMK A01 T02570192  RH  068%=      5-min Rain = 0
KSE2 160426Z 31005KT 26/19 A2995 RMK A01 T02560192  RH  068%=      5-min Rain = 0
KSE2 160427Z 30005KT 26/19 A2996 RMK A01 T02560193  RH  068%=      5-min Rain = 0
KSE2 160428Z 30006KT 26/19 A2996 RMK A01 T02560193  RH  068%=      5-min Rain = 0
KSE2 160429Z 29006KT 26/19 A2996 RMK A01 T02560193  RH  068%=      5-min Rain = 0
KSE2 160430Z 30006KT 26/19 A2996 RMK A01 T02560193  RH  068%=      5-min Rain = 0
KSE2 160431Z 30006KT 26/19 A2996 RMK A01 T02560193  RH  068%=      5-min Rain = 0
KSE2 160432Z 30006KT 26/19 A2997 RMK A01 T02570192  RH  067%=      5-min Rain = 0
KSE2 160433Z 29006KT 26/19 A2996 RMK A01 T02580192  RH  067%=      5-min Rain = 0
KSE2 160434Z 29006KT 26/19 A2996 RMK A01 T02580192  RH  067%=      5-min Rain = 0
KSE2 160435Z 29007KT 26/19 A2996 RMK A01 T02590192  RH  066%=      5-min Rain = 0
KSE2 160436Z 29006KT 26/19 A2996 RMK A01 T02610191  RH  066%=      5-min Rain = 0
KSE2 160437Z 29005KT 26/19 A2996 RMK A01 T02620192  RH  065%=      5-min Rain = 0
KSE2 160438Z 29003KT 26/19 A2996 RMK A01 T02630192  RH  065%=      5-min Rain = 0
KSE2 160439Z 27003KT 26/19 A2996 RMK A01 T02630192  RH  065%=      5-min Rain = 0
KSE2 160440Z 26003KT 26/19 A2995 RMK A01 T02630192  RH  065%=      5-min Rain = 0
KSE2 160441Z 26005KT 26/19 A2995 RMK A01 T02630193  RH  065%=      5-min Rain = 0
KSE2 160442Z 26004KT 26/19 A2996 RMK A01 T02630193  RH  065%=      5-min Rain = 0
KSE2 160443Z 26005KT 26/19 A2996 RMK A01 T02640193  RH  065%=      5-min Rain = 0
KSE2 160444Z 26005KT 26/19 A2996 RMK A01 T02640193  RH  065%=      5-min Rain = 0
KSE2 160445Z 25006KT 27/19 A2996 RMK A01 T02650193  RH  065%=      5-min Rain = 0
KSE2 160446Z 26006KT 27/19 A2996 RMK A01 T02650192  RH  064%=      5-min Rain = 0
KSE2 160447Z 26006KT 27/19 A2996 RMK A01 T02660192  RH  064%=      5-min Rain = 0
KSE2 160448Z 26006KT 27/19 A2996 RMK A01 T02660192  RH  064%=      5-min Rain = 0
KSE2 160449Z 26005KT 27/19 A2996 RMK A01 T02660192  RH  064%=      5-min Rain = 0
KSE2 160450Z 25005KT 27/19 A2996 RMK A01 T02660193  RH  064%=      5-min Rain = 0
KSE2 160451Z 25005KT 27/19 A2996 RMK A01 T02660194  RH  065%=      5-min Rain = 0
KSE2 160452Z 24004KT 27/19 A2996 RMK A01 T02660194  RH  065%=      5-min Rain = 0
KSE2 160453Z 24005KT 27/20 A2996 RMK A01 T02660196  RH  065%=      5-min Rain = 0
KSE2 160454Z 23007KT 27/20 A2996 RMK A01 T02660197  RH  066%=      5-min Rain = 0
KSE2 160455Z 22008KT 27/20 A2996 RMK A01 T02670201  RH  067%=      5-min Rain = 0
KSE2 160456Z 22009KT 27/20 A2996 RMK A01 T02680201  RH  067%=      5-min Rain = 0
KSE2 160457Z 23007KT 27/20 A2997 RMK A01 T02690201  RH  066%=      5-min Rain = 0
KSE2 160458Z 24007KT 27/20 A2997 RMK A01 T02690199  RH  065%=      5-min Rain = 0
KSE2 160459Z 27007KT 27/20 A2997 RMK A01 T02690195  RH  064%=      5-min Rain = 0

Page generated in 0.143 seconds.